Latest Flight | Flight Log | Data Trends | Login | Join FlightData.com!
Date Range From To
Export: Google Earth
Flight Log - 308CD - Click on row to view flight. Click on header to sort.
Date Origin Dest Depart Arrive Hobbs* Flight Time Flight Distance Fuel Fuel/hr Fuel/nm Altitude Gnd Speed
Wed, Dec 31, 1969     19:00 19:00 0 hrs 0.00 hrs 0.00 nm 0.00 gal 0.00 gal/hr 0.00 gal/nm 0 msl 0 kts
Wed, Dec 31, 1969     19:00 19:00 0 hrs 0.00 hrs 0.00 nm 0.00 gal 0.00 gal/hr 0.00 gal/nm 0 msl 0 kts
Wed, Dec 31, 1969     19:00 19:00 0 hrs 0.00 hrs 0.00 nm 0.00 gal 0.00 gal/hr 0.00 gal/nm 0 msl 0 kts
Wed, Dec 31, 1969     19:00 19:00 0 hrs 0.00 hrs 0.00 nm 0.00 gal 0.00 gal/hr 0.00 gal/nm 0 msl 0 kts
Wed, Dec 31, 1969     19:00 19:00 0 hrs 0.00 hrs 0.00 nm 0.00 gal 0.00 gal/hr 0.00 gal/nm 0 msl 0 kts
Wed, Dec 31, 1969     19:00 19:00 0 hrs 0.00 hrs 0.00 nm 0.00 gal 0.00 gal/hr 0.00 gal/nm 0 msl 0 kts
Wed, Dec 31, 1969     19:00 19:00 0 hrs 0.00 hrs 0.00 nm 0.00 gal 0.00 gal/hr 0.00 gal/nm 0 msl 0 kts
Wed, Dec 31, 1969     19:00 19:00 0 hrs 0.00 hrs 0.00 nm 0.00 gal 0.00 gal/hr 0.00 gal/nm 0 msl 0 kts
Wed, Dec 31, 1969     19:00 19:00 0 hrs 0.00 hrs 0.00 nm 0.00 gal 0.00 gal/hr 0.00 gal/nm 0 msl 0 kts
Wed, Dec 31, 1969     19:00 19:00 0 hrs 0.00 hrs 0.00 nm 0.00 gal 0.00 gal/hr 0.00 gal/nm 0 msl 0 kts
Wed, Dec 31, 1969     19:00 19:00 0 hrs 0.00 hrs 0.00 nm 0.00 gal 0.00 gal/hr 0.00 gal/nm 0 msl 0 kts
Wed, Dec 31, 1969     19:00 19:00 0 hrs 0.00 hrs 0.00 nm 0.00 gal 0.00 gal/hr 0.00 gal/nm 0 msl 0 kts
Wed, Dec 31, 1969     19:00 19:00 0 hrs 0.00 hrs 0.00 nm 0.00 gal 0.00 gal/hr 0.00 gal/nm 0 msl 0 kts
Wed, Dec 31, 1969     19:00 19:00 0 hrs 0.00 hrs 0.00 nm 0.00 gal 0.00 gal/hr 0.00 gal/nm 0 msl 0 kts
Wed, Dec 31, 1969     19:00 19:00 0 hrs 0.00 hrs 0.00 nm 0.00 gal 0.00 gal/hr 0.00 gal/nm 0 msl 0 kts
Wed, Dec 31, 1969     19:00 19:00 0 hrs 0.00 hrs 0.00 nm 0.00 gal 0.00 gal/hr 0.00 gal/nm 0 msl 0 kts
Wed, Dec 31, 1969     19:00 19:00 0 hrs 0.00 hrs 0.00 nm 0.00 gal 0.00 gal/hr 0.00 gal/nm 0 msl 0 kts
Wed, Dec 31, 1969     19:00 19:00 0 hrs 0.00 hrs 0.00 nm 0.00 gal 0.00 gal/hr 0.00 gal/nm 0 msl 0 kts
Wed, Dec 31, 1969     19:00 19:00 0 hrs 0.00 hrs 0.00 nm 0.00 gal 0.00 gal/hr 0.00 gal/nm 0 msl 0 kts
Wed, Dec 31, 1969     19:00 19:00 0 hrs 0.00 hrs 0.00 nm 0.00 gal 0.00 gal/hr 0.00 gal/nm 0 msl 0 kts
Wed, Dec 31, 1969     19:00 19:00 0 hrs 0.00 hrs 0.00 nm 0.00 gal 0.00 gal/hr 0.00 gal/nm 0 msl 0 kts
Wed, Dec 31, 1969     19:00 19:00 0 hrs 0.00 hrs 0.00 nm 0.00 gal 0.00 gal/hr 0.00 gal/nm 0 msl 0 kts
Wed, Dec 31, 1969     19:00 19:00 0 hrs 0.00 hrs 0.00 nm 0.00 gal 0.00 gal/hr 0.00 gal/nm 0 msl 0 kts
Wed, Dec 31, 1969     19:00 19:00 0 hrs 0.00 hrs 0.00 nm 0.00 gal 0.00 gal/hr 0.00 gal/nm 0 msl 0 kts
Wed, Dec 31, 1969     19:00 19:00 0 hrs 0.00 hrs 0.00 nm 0.00 gal 0.00 gal/hr 0.00 gal/nm 0 msl 0 kts
Wed, Dec 31, 1969     19:00 19:00 0 hrs 0.00 hrs 0.00 nm 0.00 gal 0.00 gal/hr 0.00 gal/nm 0 msl 0 kts
Wed, Dec 31, 1969     19:00 19:00 0 hrs 0.00 hrs 0.00 nm 0.00 gal 0.00 gal/hr 0.00 gal/nm 0 msl 0 kts
Wed, Dec 31, 1969     19:00 19:00 0 hrs 0.00 hrs 0.00 nm 0.00 gal 0.00 gal/hr 0.00 gal/nm 0 msl 0 kts
Wed, Dec 31, 1969     19:00 19:00 0 hrs 0.00 hrs 0.00 nm 0.00 gal 0.00 gal/hr 0.00 gal/nm 0 msl 0 kts
Wed, Dec 31, 1969     19:00 19:00 0 hrs 0.00 hrs 0.00 nm 0.00 gal 0.00 gal/hr 0.00 gal/nm 0 msl 0 kts
Wed, Dec 31, 1969     19:00 19:00 0 hrs 0.00 hrs 0.00 nm 0.00 gal 0.00 gal/hr 0.00 gal/nm 0 msl 0 kts
Wed, Dec 31, 1969     19:00 19:00 0 hrs 0.00 hrs 0.00 nm 0.00 gal 0.00 gal/hr 0.00 gal/nm 0 msl 0 kts
Wed, Dec 31, 1969     19:00 19:00 0 hrs 0.00 hrs 0.00 nm 0.00 gal 0.00 gal/hr 0.00 gal/nm 0 msl 0 kts
Wed, Dec 31, 1969     19:00 19:00 0 hrs 0.00 hrs 0.00 nm 0.00 gal 0.00 gal/hr 0.00 gal/nm 0 msl 0 kts
Wed, Dec 31, 1969     19:00 19:00 0 hrs 0.00 hrs 0.00 nm 0.00 gal 0.00 gal/hr 0.00 gal/nm 0 msl 0 kts
Wed, Dec 31, 1969     19:00 19:00 0 hrs 0.00 hrs 0.00 nm 0.00 gal 0.00 gal/hr 0.00 gal/nm 0 msl 0 kts
Sat, Nov 29, 2014 KRAL KRAL 18:56 18:56 0 hrs 0.00 hrs 0.00 nm 4.40 gal 2640.00 gal/hr 0.00 gal/nm 0 msl 0 kts
Tue, Aug 20, 2013 KSNA KSNA 00:04 00:04 0 hrs 0.00 hrs 0.00 nm 0.20 gal 120.00 gal/hr 0.00 gal/nm 0 msl 0 kts
Sat, Sep 15, 2012     00:02 00:02 0 hrs 0.00 hrs 0.00 nm 0.00 gal 0.00 gal/hr 0.00 gal/nm 0 msl 0 kts
Wed, Oct 2, 2013 KSNA KSNA 02:28 02:28 0 hrs 0.00 hrs 0.00 nm 3.30 gal 1980.00 gal/hr 0.00 gal/nm 0 msl 0 kts
Tue, Dec 9, 2014 KSNA KSNA 00:46 00:46 0 hrs 0.00 hrs 0.00 nm 3.70 gal 2220.00 gal/hr 0.00 gal/nm 0 msl 0 kts
Tue, Jun 25, 2013 KSNA KSNA 23:21 23:21 0 hrs 0.00 hrs 0.00 nm 8.70 gal 5220.00 gal/hr 0.00 gal/nm 0 msl 0 kts
Mon, Dec 8, 2014 KSNA KSNA 21:12 21:12 0 hrs 0.00 hrs 0.00 nm 9.10 gal 5460.00 gal/hr 0.00 gal/nm 0 msl 0 kts
Mon, Dec 8, 2014 KSNA KSNA 21:12 21:12 0 hrs 0.00 hrs 0.00 nm 9.10 gal 5460.00 gal/hr 0.00 gal/nm 0 msl 0 kts
Tue, Oct 22, 2013 KSNA KSNA 17:20 17:20 0 hrs 0.00 hrs 0.00 nm 0.30 gal 180.00 gal/hr 0.00 gal/nm 0 msl 0 kts
Tue, Dec 9, 2014 KSNA KSNA 21:12 21:12 0 hrs 0.00 hrs 0.00 nm 9.10 gal 5460.00 gal/hr 0.00 gal/nm 0 msl 0 kts
Thu, Sep 20, 2012     15:49 15:49 0 hrs 0.00 hrs 0.00 nm 0.10 gal 60.00 gal/hr 0.00 gal/nm 0 msl 0 kts
Sat, Sep 27, 2014     17:04 17:04 0 hrs 0.00 hrs 0.00 nm 0.00 gal 0.00 gal/hr 0.00 gal/nm 0 msl 0 kts
Mon, May 20, 2013     22:04 22:04 0 hrs 0.00 hrs 0.00 nm 0.00 gal 0.00 gal/hr 0.00 gal/nm 0 msl 0 kts
Sat, Dec 13, 2014 KSNA KSNA 23:31 23:31 0 hrs 0.00 hrs 0.00 nm 5.10 gal 3060.00 gal/hr 0.00 gal/nm 0 msl 0 kts
Sat, Dec 13, 2014 KSNA KSNA 23:31 23:31 0 hrs 0.00 hrs 0.00 nm 5.10 gal 3060.00 gal/hr 0.00 gal/nm 0 msl 0 kts
Fri, Apr 18, 2008 KSNA KSNA 01:21 01:21 0 hrs 0.00 hrs 0.00 nm 6.70 gal 4020.00 gal/hr 0.00 gal/nm 0 msl 0 kts
Tue, May 14, 2013     22:04 22:04 0 hrs 0.00 hrs 0.00 nm 0.00 gal 0.00 gal/hr 0.00 gal/nm 0 msl 0 kts
Mon, May 5, 2008 KSNA KSNA 23:19 23:19 0 hrs 0.00 hrs 0.00 nm 1.10 gal 660.00 gal/hr 0.00 gal/nm 0 msl 0 kts
Mon, May 5, 2008 KSNA KSNA 23:19 23:19 0 hrs 0.00 hrs 0.00 nm 1.10 gal 660.00 gal/hr 0.00 gal/nm 0 msl 0 kts
Wed, Jun 11, 2008     23:11 23:11 0 hrs 0.00 hrs 0.00 nm 0.20 gal 120.00 gal/hr 0.00 gal/nm 0 msl 0 kts
Thu, Jun 12, 2008 KSNA KSNA 20:49 20:49 0 hrs 0.00 hrs 0.00 nm 8.80 gal 5280.00 gal/hr 0.00 gal/nm 0 msl 0 kts
Wed, Jan 7, 2015     01:40 01:40 0 hrs 0.00 hrs 0.00 nm 0.00 gal 0.00 gal/hr 0.00 gal/nm 0 msl 0 kts
Thu, Jun 26, 2008 KSNA KSNA 21:43 21:43 0 hrs 0.00 hrs 0.00 nm 8.90 gal 5340.00 gal/hr 0.00 gal/nm 0 msl 0 kts
Fri, Aug 15, 2008     15:16 15:16 0 hrs 0.00 hrs 0.00 nm 0.40 gal 240.00 gal/hr 0.00 gal/nm 0 msl 0 kts
Wed, Aug 20, 2014 KSMO KSMO 18:13 18:13 0 hrs 0.00 hrs 0.00 nm 1.10 gal 660.00 gal/hr 0.00 gal/nm 0 msl 0 kts
Wed, Sep 17, 2008 KSNA KSNA 17:08 17:08 0 hrs 0.00 hrs 0.00 nm 5.70 gal 3420.00 gal/hr 0.00 gal/nm 0 msl 0 kts
Thu, Aug 28, 2014 KSNA KSNA 01:23 01:23 0 hrs 0.00 hrs 0.00 nm 7.90 gal 4740.00 gal/hr 0.00 gal/nm 0 msl 0 kts
Wed, Feb 3, 2010 KSNA KSNA 01:41 01:41 0 hrs 0.00 hrs 0.00 nm 3.20 gal 1920.00 gal/hr 0.00 gal/nm 0 msl 0 kts
Tue, Oct 28, 2008 KSNA KSNA 21:26 21:26 0 hrs 0.00 hrs 0.00 nm 14.50 gal 8700.00 gal/hr 0.00 gal/nm 0 msl 0 kts
Wed, Jan 7, 2015 KSNA KSNA 22:18 22:18 0 hrs 0.00 hrs 0.00 nm 27.50 gal 16500.00 gal/hr 0.00 gal/nm 0 msl 0 kts
Wed, Jan 7, 2015 KSNA KSNA 22:18 22:18 0 hrs 0.00 hrs 0.00 nm 27.50 gal 16500.00 gal/hr 0.00 gal/nm 0 msl 0 kts
Wed, Jan 21, 2015 KCMA KCMA 21:00 21:00 0 hrs 0.00 hrs 0.00 nm 9.70 gal 5820.00 gal/hr 0.00 gal/nm 0 msl 0 kts
Wed, Jan 21, 2015 KCMA KCMA 21:00 21:00 0 hrs 0.00 hrs 0.00 nm 9.70 gal 5820.00 gal/hr 0.00 gal/nm 0 msl 0 kts
Tue, May 20, 2014 KSNA KSNA 00:11 00:11 0 hrs 0.00 hrs 0.00 nm 9.70 gal 5820.00 gal/hr 0.00 gal/nm 0 msl 0 kts
Thu, Dec 11, 2008 KSNA KSNA 18:49 18:49 0 hrs 0.00 hrs 0.00 nm 10.60 gal 6360.00 gal/hr 0.00 gal/nm 0 msl 0 kts
Thu, Dec 11, 2008 KSNA KSNA 18:49 18:49 0 hrs 0.00 hrs 0.00 nm 10.60 gal 6360.00 gal/hr 0.00 gal/nm 0 msl 0 kts
Thu, Dec 11, 2008 KSNA KSNA 18:49 18:49 0 hrs 0.00 hrs 0.00 nm 10.60 gal 6360.00 gal/hr 0.00 gal/nm 0 msl 0 kts
Thu, Oct 22, 2009 KSNA KSNA 02:30 02:30 0 hrs 0.00 hrs 0.00 nm 3.00 gal 1800.00 gal/hr 0.00 gal/nm 0 msl 0 kts
Thu, Dec 11, 2008 KSNA KSNA 18:49 18:49 0 hrs 0.00 hrs 0.00 nm 10.60 gal 6360.00 gal/hr 0.00 gal/nm 0 msl 0 kts
Thu, Oct 22, 2009 KSNA KSNA 02:30 02:30 0 hrs 0.00 hrs 0.00 nm 3.00 gal 1800.00 gal/hr 0.00 gal/nm 0 msl 0 kts
Sat, Oct 17, 2009 KSNA KSNA 02:30 02:30 0 hrs 0.00 hrs 0.00 nm 3.00 gal 1800.00 gal/hr 0.00 gal/nm 0 msl 0 kts
Thu, Jun 12, 2014     02:36 02:36 0 hrs 0.00 hrs 0.00 nm 0.00 gal 0.00 gal/hr 0.00 gal/nm 0 msl 0 kts
Sun, May 18, 2014     22:17 22:17 0 hrs 0.00 hrs 0.00 nm 0.30 gal 180.00 gal/hr 0.00 gal/nm 0 msl 0 kts
Mon, Oct 12, 2009 KRAL KRAL 21:32 21:32 0 hrs 0.00 hrs 0.00 nm 3.80 gal 2280.00 gal/hr 0.00 gal/nm 0 msl 0 kts
Sun, Oct 11, 2009 KRAL KRAL 21:32 21:32 0 hrs 0.00 hrs 0.00 nm 3.80 gal 2280.00 gal/hr 0.00 gal/nm 0 msl 0 kts
Sat, Feb 14, 2015     00:39 00:39 0 hrs 0.00 hrs 0.00 nm 0.30 gal 180.00 gal/hr 0.00 gal/nm 0 msl 0 kts
Sun, Nov 1, 2009 KSNA KSNA 01:11 01:11 0 hrs 0.00 hrs 0.00 nm 2.90 gal 1740.00 gal/hr 0.00 gal/nm 0 msl 0 kts
Thu, Aug 20, 2009 KSNA KSNA 03:50 03:50 0 hrs 0.00 hrs 0.00 nm 8.50 gal 5100.00 gal/hr 0.00 gal/nm 0 msl 0 kts
Sat, Aug 15, 2009 KSNA KSNA 23:02 23:02 0 hrs 0.00 hrs 0.00 nm 34.60 gal 20760.00 gal/hr 0.00 gal/nm 0 msl 0 kts
Sat, Nov 20, 2010 KSNA KSNA 04:34 04:34 0 hrs 0.00 hrs 0.00 nm 37.20 gal 22320.00 gal/hr 0.00 gal/nm 0 msl 0 kts
Sat, Nov 20, 2010 KSNA KSNA 04:34 04:34 0 hrs 0.00 hrs 0.00 nm 37.20 gal 22320.00 gal/hr 0.00 gal/nm 0 msl 0 kts
Wed, Jul 15, 2009 KSNA KSNA 01:47 01:47 0 hrs 0.00 hrs 0.00 nm 8.20 gal 4920.00 gal/hr 0.00 gal/nm 0 msl 0 kts
Thu, Jun 11, 2009 KSNA KSNA 23:04 23:04 0 hrs 0.00 hrs 0.00 nm 12.10 gal 7260.00 gal/hr 0.00 gal/nm 0 msl 0 kts
Sat, Oct 30, 2010 KSNA KSNA 00:26 00:26 0 hrs 0.00 hrs 0.00 nm 0.30 gal 180.00 gal/hr 0.00 gal/nm 0 msl 0 kts
Sun, Mar 1, 2015     21:08 21:08 0 hrs 0.00 hrs 0.00 nm 0.00 gal 0.00 gal/hr 0.00 gal/nm 0 msl 0 kts
Sat, Apr 25, 2009 KSNA KSNA 01:57 01:57 0 hrs 0.00 hrs 0.00 nm 3.00 gal 1800.00 gal/hr 0.00 gal/nm 0 msl 0 kts
Fri, Oct 1, 2010 KSNA KSNA 22:33 22:33 0 hrs 0.00 hrs 0.00 nm 0.90 gal 540.00 gal/hr 0.00 gal/nm 0 msl 0 kts
Wed, Mar 6, 2013 KSNA KSNA 00:49 00:49 0 hrs 0.00 hrs 0.00 nm 10.90 gal 6540.00 gal/hr 0.00 gal/nm 0 msl 0 kts
Wed, Apr 22, 2009 KSNA KSNA 01:57 01:57 0 hrs 0.00 hrs 0.00 nm 3.00 gal 1800.00 gal/hr 0.00 gal/nm 0 msl 0 kts
Thu, Dec 22, 2011 KRAL KRAL 01:21 01:21 0 hrs 0.00 hrs 0.00 nm 19.70 gal 11820.00 gal/hr 0.00 gal/nm 0 msl 0 kts
Tue, Sep 21, 2010 KSNA KSNA 03:05 03:05 0 hrs 0.00 hrs 0.00 nm 35.30 gal 21180.00 gal/hr 0.00 gal/nm 0 msl 0 kts
Fri, Mar 13, 2015 KSNA KSNA 01:05 01:05 0 hrs 0.00 hrs 0.00 nm 26.90 gal 16140.00 gal/hr 0.00 gal/nm 0 msl 0 kts
Fri, Dec 23, 2011 KSNA KSNA 19:08 19:08 0 hrs 0.00 hrs 0.00 nm 0.20 gal 120.00 gal/hr 0.00 gal/nm 0 msl 0 kts
Fri, Apr 17, 2009 KSNA KSNA 23:32 23:32 0 hrs 0.00 hrs 0.00 nm 7.20 gal 4320.00 gal/hr 0.00 gal/nm 0 msl 0 kts
Fri, Apr 17, 2009 KSNA KSNA 23:32 23:32 0 hrs 0.00 hrs 0.00 nm 7.20 gal 4320.00 gal/hr 0.00 gal/nm 0 msl 0 kts
Fri, Apr 17, 2009 KSNA KSNA 23:32 23:32 0 hrs 0.00 hrs 0.00 nm 7.20 gal 4320.00 gal/hr 0.00 gal/nm 0 msl 0 kts
Sun, Apr 12, 2009 KRAL KRAL 22:44 22:44 0 hrs 0.00 hrs 0.00 nm 0.20 gal 120.00 gal/hr 0.00 gal/nm 0 msl 0 kts
Sun, Aug 29, 2010 F70 F70 23:43 23:43 0 hrs 0.00 hrs 0.00 nm 30.70 gal 18420.00 gal/hr 0.00 gal/nm 0 msl 0 kts
Thu, Jan 12, 2012 KSNA KSNA 23:40 23:40 0 hrs 0.00 hrs 0.00 nm 0.20 gal 120.00 gal/hr 0.00 gal/nm 0 msl 0 kts
Mon, Aug 30, 2010 F70 F70 19:30 19:30 0 hrs 0.00 hrs 0.00 nm 6.70 gal 4020.00 gal/hr 0.00 gal/nm 0 msl 0 kts
Fri, Mar 13, 2009 KSNA KSNA 20:10 20:10 0 hrs 0.00 hrs 0.00 nm 0.20 gal 120.00 gal/hr 0.00 gal/nm 0 msl 0 kts
Thu, Jul 8, 2010 KSNA KSNA 22:23 22:23 0 hrs 0.00 hrs 0.00 nm 3.80 gal 2280.00 gal/hr 0.00 gal/nm 0 msl 0 kts
Sat, Sep 27, 2014     17:04 17:04 0 hrs 0.00 hrs 0.00 nm 0.00 gal 0.00 gal/hr 0.00 gal/nm 0 msl 0 kts
Sun, Sep 28, 2014     17:04 17:04 0 hrs 0.00 hrs 0.00 nm 0.00 gal 0.00 gal/hr 0.00 gal/nm 0 msl 0 kts
Wed, Apr 25, 2012 KSNA KSNA 00:56 00:56 0 hrs 0.00 hrs 0.00 nm 3.20 gal 1920.00 gal/hr 0.00 gal/nm 0 msl 0 kts
Sun, Jun 6, 2010 KNZJ KNZJ 22:56 22:56 0 hrs 0.00 hrs 0.00 nm 23.90 gal 14340.00 gal/hr 0.00 gal/nm 0 msl 0 kts
Thu, Apr 26, 2012     20:35 20:35 0 hrs 0.00 hrs 0.00 nm 0.00 gal 0.00 gal/hr 0.00 gal/nm 0 msl 0 kts
Sun, May 18, 2014     22:17 22:17 0 hrs 0.00 hrs 0.00 nm 0.30 gal 180.00 gal/hr 0.00 gal/nm 0 msl 0 kts
Thu, May 27, 2010 KSNA KSNA 23:12 23:12 0 hrs 0.00 hrs 0.00 nm 32.20 gal 19320.00 gal/hr 0.00 gal/nm 0 msl 0 kts
Mon, Oct 27, 2014     17:00 17:00 0 hrs 0.00 hrs 0.00 nm 0.10 gal 60.00 gal/hr 0.00 gal/nm 0 msl 0 kts
Fri, Oct 31, 2014 KSNA KSNA 22:02 22:02 0 hrs 0.00 hrs 0.00 nm 17.50 gal 10500.00 gal/hr 0.00 gal/nm 0 msl 0 kts
Fri, Oct 31, 2014 KSNA KSNA 22:02 22:02 0 hrs 0.00 hrs 0.00 nm 17.50 gal 10500.00 gal/hr 0.00 gal/nm 0 msl 0 kts
Sat, Jun 23, 2012 KSNA KSNA 23:02 23:02 0 hrs 0.00 hrs 0.00 nm 9.20 gal 5520.00 gal/hr 0.00 gal/nm 0 msl 0 kts
Fri, Oct 31, 2014 KSNA KSNA 22:02 22:02 0 hrs 0.00 hrs 0.00 nm 17.50 gal 10500.00 gal/hr 0.00 gal/nm 0 msl 0 kts
Sat, Jun 23, 2012 KSNA KSNA 23:02 23:02 0 hrs 0.00 hrs 0.00 nm 9.20 gal 5520.00 gal/hr 0.00 gal/nm 0 msl 0 kts
Sun, Nov 2, 2014     19:35 19:35 0 hrs 0.00 hrs 0.00 nm 0.00 gal 0.00 gal/hr 0.00 gal/nm 0 msl 0 kts
Fri, Feb 14, 2014 KSNA KSNA 00:11 00:11 0 hrs 0.00 hrs 0.00 nm 0.00 gal 0.00 gal/hr 0.00 gal/nm 0 msl 0 kts
Wed, Mar 6, 2013 KSNA KSNA 00:49 00:49 0 hrs 0.00 hrs 0.00 nm 10.90 gal 6540.00 gal/hr 0.00 gal/nm 0 msl 0 kts
Fri, Nov 14, 2014 KSNA KSNA 20:22 20:22 0 hrs 0.00 hrs 0.00 nm 0.40 gal 240.00 gal/hr 0.00 gal/nm 0 msl 0 kts
Fri, Nov 14, 2014 KSNA KSNA 20:22 20:22 0 hrs 0.00 hrs 0.00 nm 0.40 gal 240.00 gal/hr 0.00 gal/nm 0 msl 0 kts
Sun, Feb 24, 2013 KSNA KSNA 19:16 19:16 0 hrs 0.00 hrs 0.00 nm 0.00 gal 0.00 gal/hr 0.00 gal/nm 0 msl 0 kts
Fri, Nov 14, 2014 KSNA KSNA 20:22 20:22 0 hrs 0.00 hrs 0.00 nm 0.40 gal 240.00 gal/hr 0.00 gal/nm 0 msl 0 kts
Fri, Aug 9, 2013 KSNA KSNA 00:26 00:26 0 hrs 0.00 hrs 0.00 nm 0.00 gal 0.00 gal/hr 0.00 gal/nm 0 msl 0 kts
Fri, Nov 14, 2014 KSNA KSNA 20:22 20:22 0 hrs 0.00 hrs 0.00 nm 0.40 gal 240.00 gal/hr 0.00 gal/nm 0 msl 0 kts
Fri, Nov 14, 2014 KSNA KSNA 20:22 20:22 0 hrs 0.00 hrs 0.00 nm 0.40 gal 240.00 gal/hr 0.00 gal/nm 0 msl 0 kts
Fri, Nov 14, 2014 KSNA KSNA 20:22 20:22 0 hrs 0.00 hrs 0.00 nm 0.40 gal 240.00 gal/hr 0.00 gal/nm 0 msl 0 kts
Fri, Nov 14, 2014     05:24 05:24 0 hrs 0.00 hrs 0.00 nm 0.00 gal 0.00 gal/hr 0.00 gal/nm 0 msl 0 kts
Fri, Mar 13, 2009 KSNA KSNA 20:10 20:10 0 hrs 0.00 hrs 0.00 nm 0.20 gal 120.00 gal/hr 0.00 gal/nm 0 msl 0 kts
Fri, Mar 13, 2009 KSNA KSNA 20:10 20:10 0 hrs 0.00 hrs 0.00 nm 0.20 gal 120.00 gal/hr 0.00 gal/nm 0 msl 0 kts
Tue, Aug 20, 2013 KSNA KSNA 00:04 00:04 0 hrs 0.00 hrs 0.00 nm 0.20 gal 120.00 gal/hr 0.00 gal/nm 0 msl 0 kts
Sat, Jul 20, 2013 KSNA KSNA 23:37 23:37 0 hrs 0.00 hrs 0.00 nm 0.30 gal 180.00 gal/hr 0.00 gal/nm 0 msl 0 kts
Sat, Dec 29, 2012     23:30 23:30 0 hrs 0.00 hrs 0.00 nm 0.10 gal 60.00 gal/hr 0.00 gal/nm 0 msl 0 kts
Sat, Feb 28, 2009 KSNA KSNA 21:18 21:18 0 hrs 0.00 hrs 0.00 nm 12.70 gal 7620.00 gal/hr 0.00 gal/nm 0 msl 0 kts
Mon, Nov 17, 2014     18:32 18:32 0 hrs 0.00 hrs 0.00 nm 0.00 gal 0.00 gal/hr 0.00 gal/nm 0 msl 0 kts
Fri, Aug 9, 2013 KSNA KSNA 00:26 00:26 0 hrs 0.00 hrs 0.00 nm 0.00 gal 0.00 gal/hr 0.00 gal/nm 0 msl 0 kts
Sun, Nov 16, 2014     20:29 20:29 0 hrs 0.00 hrs 0.00 nm 0.00 gal 0.00 gal/hr 0.00 gal/nm 0 msl 0 kts
Wed, Nov 6, 2013 KSNA KSNA 20:44 20:44 0 hrs 0.00 hrs 0.00 nm 12.50 gal 7500.00 gal/hr 0.00 gal/nm 0 msl 0 kts
Wed, Aug 8, 2012 KSNA KSNA 22:57 22:57 0 hrs 0.00 hrs 0.00 nm 0.40 gal 240.00 gal/hr 0.00 gal/nm 0 msl 0 kts
Fri, Aug 9, 2013 KSNA KSNA 00:26 00:26 0 hrs 0.00 hrs 0.00 nm 0.00 gal 0.00 gal/hr 0.00 gal/nm 0 msl 0 kts
Fri, Dec 28, 2012 KRAL KRAL 19:37 19:37 0 hrs 0.00 hrs 0.00 nm 7.30 gal 4380.00 gal/hr 0.00 gal/nm 0 msl 0 kts
Fri, Dec 28, 2012 KRAL KRAL 19:37 19:37 0 hrs 0.00 hrs 0.00 nm 7.30 gal 4380.00 gal/hr 0.00 gal/nm 0 msl 0 kts
Wed, Nov 6, 2013 KSNA KSNA 20:44 20:44 0 hrs 0.00 hrs 0.00 nm 12.50 gal 7500.00 gal/hr 0.00 gal/nm 0 msl 0 kts
Sat, Dec 29, 2012 KRAL KRAL 19:37 19:37 0 hrs 0.00 hrs 0.00 nm 7.30 gal 4380.00 gal/hr 0.00 gal/nm 0 msl 0 kts
Thu, Aug 23, 2012 KSNA KSNA 19:33 19:33 0 hrs 0.00 hrs 0.00 nm 32.70 gal 19620.00 gal/hr 0.00 gal/nm 0 msl 0 kts
Wed, Jan 14, 2009 KSNA KSNA 00:27 00:27 0 hrs 0.00 hrs 0.00 nm 15.70 gal 9420.00 gal/hr 0.00 gal/nm 0 msl 0 kts
Tue, Oct 16, 2012     20:21 20:21 0 hrs 0.00 hrs 0.00 nm 0.00 gal 0.00 gal/hr 0.00 gal/nm 0 msl 0 kts
Tue, Jun 25, 2013 KSNA KSNA 23:21 23:21 0 hrs 0.00 hrs 0.00 nm 8.70 gal 5220.00 gal/hr 0.00 gal/nm 0 msl 0 kts
Thu, Jan 8, 2009 KSNA KSNA 19:19 19:19 0 hrs 0.00 hrs 0.00 nm 0.50 gal 300.00 gal/hr 0.00 gal/nm 0 msl 0 kts
Sun, Mar 4, 2018     23:59 00:00 0 hrs 0.00 hrs 0.00 nm 0.00 gal 0.00 gal/hr 0.00 gal/nm 0 msl 0 kts
Sun, Mar 31, 2019     16:33 16:33 0.01 hrs 0.00 hrs 0.00 nm 0.00 gal 0.00 gal/hr 0.00 gal/nm 0 msl 0 kts
Mon, Apr 22, 2019     01:47 01:48 0.01 hrs 0.00 hrs 0.00 nm 0.00 gal 0.00 gal/hr 0.00 gal/nm 0 msl 0 kts
Tue, Jun 19, 2018     16:22 16:23 0.02 hrs 0.00 hrs 0.00 nm 0.00 gal 0.00 gal/hr 0.00 gal/nm 0 msl 0 kts
Fri, Nov 6, 2015     21:33 21:34 0.02 hrs 0.00 hrs 0.00 nm 0.10 gal 6.00 gal/hr 0.00 gal/nm 0 msl 0 kts
Wed, Apr 15, 2015     20:36 20:37 0.02 hrs 0.00 hrs 0.00 nm 0.00 gal 0.00 gal/hr 0.00 gal/nm 0 msl 0 kts
Mon, Apr 4, 2016     16:57 16:58 0.02 hrs 0.00 hrs 0.00 nm 0.00 gal 0.00 gal/hr 0.00 gal/nm 0 msl 0 kts
Fri, Mar 2, 2018     00:18 00:19 0.02 hrs 0.00 hrs 0.00 nm 0.00 gal 0.00 gal/hr 0.00 gal/nm 0 msl 0 kts
Fri, Jul 20, 2018     02:42 02:43 0.02 hrs 0.00 hrs 0.00 nm 0.00 gal 0.00 gal/hr 0.00 gal/nm 0 msl 0 kts
Mon, Apr 4, 2016     17:01 17:02 0.02 hrs 0.00 hrs 0.00 nm 0.00 gal 0.00 gal/hr 0.00 gal/nm 0 msl 0 kts
Fri, Mar 2, 2018     02:37 02:38 0.02 hrs 0.00 hrs 0.00 nm 0.00 gal 0.00 gal/hr 0.00 gal/nm 0 msl 0 kts
Tue, Sep 18, 2018     20:48 20:49 0.02 hrs 0.00 hrs 0.00 nm 0.00 gal 0.00 gal/hr 0.00 gal/nm 0 msl 0 kts
Wed, Apr 25, 2018     17:03 17:04 0.02 hrs 0.00 hrs 0.00 nm 0.00 gal 0.00 gal/hr 0.00 gal/nm 0 msl 0 kts
Thu, Apr 26, 2018     00:36 00:37 0.02 hrs 0.00 hrs 0.00 nm 0.00 gal 0.00 gal/hr 0.00 gal/nm 0 msl 0 kts
Tue, Jun 19, 2018     16:14 16:15 0.02 hrs 0.00 hrs 0.00 nm 0.00 gal 0.00 gal/hr 0.00 gal/nm 0 msl 0 kts
Tue, Jun 19, 2018     16:18 16:19 0.02 hrs 0.00 hrs 0.00 nm 0.00 gal 0.00 gal/hr 0.00 gal/nm 0 msl 0 kts
Wed, Apr 25, 2018     15:54 15:55 0.02 hrs 0.00 hrs 0.00 nm 0.00 gal 0.00 gal/hr 0.00 gal/nm 0 msl 0 kts
Wed, Mar 28, 2018     18:17 18:18 0.02 hrs 0.00 hrs 0.00 nm 0.00 gal 0.00 gal/hr 0.00 gal/nm 0 msl 0 kts
Fri, May 13, 2016     20:00 20:01 0.02 hrs 0.00 hrs 0.00 nm 0.00 gal 0.00 gal/hr 0.00 gal/nm 0 msl 0 kts
Wed, Mar 28, 2018     18:14 18:15 0.02 hrs 0.00 hrs 0.00 nm 0.00 gal 0.00 gal/hr 0.00 gal/nm 0 msl 0 kts
Thu, May 28, 2015     03:59 04:00 0.02 hrs 0.00 hrs 0.00 nm 0.00 gal 0.00 gal/hr 0.00 gal/nm 0 msl 0 kts
Wed, May 25, 2016     03:46 03:47 0.02 hrs 0.00 hrs 0.00 nm 0.00 gal 0.00 gal/hr 0.00 gal/nm 0 msl 0 kts
Sun, Aug 19, 2018     00:23 00:24 0.02 hrs 0.00 hrs 0.00 nm 0.00 gal 0.00 gal/hr 0.00 gal/nm 0 msl 0 kts
Wed, Jan 3, 2018     01:18 01:19 0.02 hrs 0.00 hrs 0.00 nm 0.00 gal 0.00 gal/hr 0.00 gal/nm 0 msl 0 kts
Wed, Jan 3, 2018     01:22 01:23 0.02 hrs 0.00 hrs 0.00 nm 0.00 gal 0.00 gal/hr 0.00 gal/nm 0 msl 0 kts
Thu, Jan 10, 2019     23:55 23:56 0.02 hrs 0.00 hrs 0.00 nm 0.30 gal 18.00 gal/hr 0.00 gal/nm 0 msl 0 kts
Sun, Jan 16, 2000     15:00 15:01 0.02 hrs 0.00 hrs 0.00 nm 0.10 gal 6.00 gal/hr 0.00 gal/nm 0 msl 0 kts
Tue, Feb 26, 2019     19:47 19:48 0.02 hrs 0.00 hrs 0.00 nm 0.00 gal 0.00 gal/hr 0.00 gal/nm 0 msl 0 kts
Tue, May 30, 2017     20:54 20:54 0.02 hrs 0.00 hrs 0.00 nm 0.00 gal 0.00 gal/hr 0.00 gal/nm 0 msl 0 kts
Mon, Jun 6, 2016     03:57 03:58 0.02 hrs 0.00 hrs 0.00 nm 0.00 gal 0.00 gal/hr 0.00 gal/nm 0 msl 0 kts
Fri, Jun 17, 2016     00:38 00:39 0.02 hrs 0.00 hrs 0.00 nm 0.00 gal 0.00 gal/hr 0.00 gal/nm 0 msl 0 kts
Wed, Jun 22, 2016     19:37 19:38 0.02 hrs 0.00 hrs 0.00 nm 0.00 gal 0.00 gal/hr 0.00 gal/nm 0 msl 0 kts
Thu, Jul 14, 2016     17:22 17:23 0.02 hrs 0.00 hrs 0.00 nm 0.00 gal 0.00 gal/hr 0.00 gal/nm 0 msl 0 kts
Fri, Jul 22, 2016     00:26 00:27 0.02 hrs 0.00 hrs 0.00 nm 0.00 gal 0.00 gal/hr 0.00 gal/nm 0 msl 0 kts
Tue, Jun 6, 2017     21:17 21:18 0.02 hrs 0.00 hrs 0.00 nm 0.00 gal 0.00 gal/hr 0.00 gal/nm 0 msl 0 kts
Fri, Feb 2, 2018     19:40 19:41 0.02 hrs 0.00 hrs 0.00 nm 0.00 gal 0.00 gal/hr 0.00 gal/nm 0 msl 0 kts
Sun, Jun 18, 2017     03:46 03:47 0.02 hrs 0.00 hrs 0.00 nm 0.00 gal 0.00 gal/hr 0.00 gal/nm 0 msl 0 kts
Wed, Feb 28, 2018     17:00 17:00 0.02 hrs 0.00 hrs 0.00 nm 0.00 gal 0.00 gal/hr 0.00 gal/nm 0 msl 0 kts
Sun, Jan 14, 2018     21:54 21:55 0.02 hrs 0.00 hrs 0.00 nm 0.30 gal 18.00 gal/hr 0.00 gal/nm 0 msl 0 kts
Wed, Apr 25, 2018     15:54 15:55 0.02 hrs 0.00 hrs 0.00 nm 0.00 gal 0.00 gal/hr 0.00 gal/nm 0 msl 0 kts
Wed, Mar 28, 2018     18:17 18:18 0.02 hrs 0.00 hrs 0.00 nm 0.00 gal 0.00 gal/hr 0.00 gal/nm 0 msl 0 kts
Tue, Feb 14, 2017     19:11 19:12 0.02 hrs 0.00 hrs 0.00 nm 0.10 gal 6.00 gal/hr 0.00 gal/nm 0 msl 0 kts
Tue, Feb 14, 2017     21:07 21:08 0.02 hrs 0.00 hrs 0.00 nm 0.00 gal 0.00 gal/hr 0.00 gal/nm 0 msl 0 kts
Wed, Mar 28, 2018     18:14 18:15 0.02 hrs 0.00 hrs 0.00 nm 0.00 gal 0.00 gal/hr 0.00 gal/nm 0 msl 0 kts
Fri, Jun 10, 2016     15:18 15:19 0.02 hrs 0.00 hrs 0.00 nm 0.20 gal 12.00 gal/hr 0.00 gal/nm 0 msl 0 kts
Wed, Feb 15, 2017     23:10 23:11 0.02 hrs 0.00 hrs 0.00 nm 0.00 gal 0.00 gal/hr 0.00 gal/nm 0 msl 0 kts
Wed, Jan 3, 2018     03:30 03:31 0.02 hrs 0.00 hrs 0.00 nm 0.00 gal 0.00 gal/hr 0.00 gal/nm 0 msl 0 kts
Sun, Feb 26, 2017     15:45 15:46 0.02 hrs 0.00 hrs 0.00 nm 0.00 gal 0.00 gal/hr 0.00 gal/nm 0 msl 0 kts
Sun, Jan 14, 2018     21:54 21:55 0.02 hrs 0.00 hrs 0.00 nm 0.30 gal 18.00 gal/hr 0.00 gal/nm 0 msl 0 kts
Tue, Jan 30, 2018     00:39 00:39 0.02 hrs 0.00 hrs 0.00 nm 0.00 gal 0.00 gal/hr 0.00 gal/nm 0 msl 0 kts
Tue, Jan 30, 2018     00:39 00:39 0.02 hrs 0.00 hrs 0.00 nm 0.00 gal 0.00 gal/hr 0.00 gal/nm 0 msl 0 kts
Wed, Jul 29, 2015     01:38 01:39 0.02 hrs 0.00 hrs 0.00 nm 0.00 gal 0.00 gal/hr 0.00 gal/nm 0 msl 0 kts
Wed, May 23, 2018     17:46 17:47 0.02 hrs 0.00 hrs 0.00 nm 0.00 gal 0.00 gal/hr 0.00 gal/nm 0 msl 0 kts
Sat, Mar 25, 2017     21:09 21:10 0.02 hrs 0.00 hrs 0.00 nm 0.00 gal 0.00 gal/hr 0.00 gal/nm 0 msl 0 kts
Sun, Feb 11, 2018     03:09 03:09 0.02 hrs 0.00 hrs 0.00 nm 0.00 gal 0.00 gal/hr 0.00 gal/nm 0 msl 0 kts
Fri, Sep 1, 2017     21:05 21:06 0.02 hrs 0.00 hrs 0.00 nm 0.10 gal 6.00 gal/hr 0.00 gal/nm 0 msl 0 kts
Wed, Apr 12, 2017     17:40 17:41 0.02 hrs 0.00 hrs 0.00 nm 0.00 gal 0.00 gal/hr 0.00 gal/nm 0 msl 0 kts
Wed, Feb 3, 2016     05:56 05:57 0.02 hrs 0.00 hrs 0.00 nm 0.00 gal 0.00 gal/hr 0.00 gal/nm 0 msl 0 kts
Wed, Sep 13, 2017     20:20 20:20 0.02 hrs 0.00 hrs 0.00 nm 0.00 gal 0.00 gal/hr 0.00 gal/nm 0 msl 0 kts
Fri, Feb 2, 2018     19:40 19:41 0.02 hrs 0.00 hrs 0.00 nm 0.00 gal 0.00 gal/hr 0.00 gal/nm 0 msl 0 kts
Fri, Sep 18, 2015     04:55 04:56 0.02 hrs 0.00 hrs 0.00 nm 0.00 gal 0.00 gal/hr 0.00 gal/nm 0 msl 0 kts
Sun, Oct 14, 2018     18:19 18:20 0.02 hrs 0.00 hrs 0.00 nm 0.00 gal 0.00 gal/hr 0.00 gal/nm 0 msl 0 kts
Thu, Mar 29, 2018     06:52 06:53 0.02 hrs 0.00 hrs 0.00 nm 0.00 gal 0.00 gal/hr 0.00 gal/nm 0 msl 0 kts
Wed, Feb 28, 2018     17:00 17:00 0.02 hrs 0.00 hrs 0.00 nm 0.00 gal 0.00 gal/hr 0.00 gal/nm 0 msl 0 kts
Tue, Jan 1, 2019     23:48 23:49 0.02 hrs 0.00 hrs 0.00 nm 0.00 gal 0.00 gal/hr 0.00 gal/nm 0 msl 0 kts
Wed, Feb 24, 2016     22:08 22:09 0.02 hrs 0.00 hrs 0.00 nm 0.00 gal 0.00 gal/hr 0.00 gal/nm 0 msl 0 kts
Thu, Feb 25, 2016     17:47 17:48 0.02 hrs 0.00 hrs 0.00 nm 0.00 gal 0.00 gal/hr 0.00 gal/nm 0 msl 0 kts
Thu, Feb 25, 2016     21:28 21:29 0.02 hrs 0.00 hrs 0.00 nm 0.00 gal 0.00 gal/hr 0.00 gal/nm 0 msl 0 kts
Thu, Oct 1, 2015     22:27 22:28 0.02 hrs 0.00 hrs 0.00 nm 0.00 gal 0.00 gal/hr 0.00 gal/nm 0 msl 0 kts
Fri, Feb 26, 2016     17:50 17:51 0.02 hrs 0.00 hrs 0.00 nm 0.00 gal 0.00 gal/hr 0.00 gal/nm 0 msl 0 kts
Fri, Mar 4, 2016     22:44 22:45 0.02 hrs 0.00 hrs 0.00 nm 0.00 gal 0.00 gal/hr 0.00 gal/nm 0 msl 0 kts
Tue, Mar 27, 2018     03:46 03:47 0.02 hrs 0.00 hrs 0.00 nm 13.90 gal 834.00 gal/hr 0.00 gal/nm 0 msl 0 kts
Fri, Mar 4, 2016     22:47 22:47 0.02 hrs 0.00 hrs 0.00 nm 0.00 gal 0.00 gal/hr 0.00 gal/nm 0 msl 0 kts
Fri, Oct 27, 2017     23:21 23:22 0.02 hrs 0.00 hrs 0.00 nm 0.00 gal 0.00 gal/hr 0.00 gal/nm 0 msl 0 kts
Mon, Mar 26, 2018     22:32 22:33 0.02 hrs 0.00 hrs 0.00 nm 0.00 gal 0.00 gal/hr 0.00 gal/nm 0 msl 0 kts
Sat, Jan 1, 2000     00:10 00:11 0.02 hrs 0.00 hrs 0.00 nm 0.00 gal 0.00 gal/hr 0.00 gal/nm 0 msl 0 kts
Fri, Nov 10, 2017     20:40 20:41 0.02 hrs 0.00 hrs 0.00 nm 0.00 gal 0.00 gal/hr 0.00 gal/nm 0 msl 0 kts
Mon, Oct 27, 2014     15:47 15:48 0.02 hrs 0.00 hrs 0.00 nm 0.00 gal 0.00 gal/hr 0.00 gal/nm 0 msl 0 kts
Tue, Nov 14, 2017     23:58 23:59 0.02 hrs 0.00 hrs 0.00 nm 0.10 gal 6.00 gal/hr 0.00 gal/nm 0 msl 0 kts
Wed, Nov 15, 2017     02:45 02:45 0.02 hrs 0.00 hrs 0.00 nm 0.00 gal 0.00 gal/hr 0.00 gal/nm 0 msl 0 kts
Sat, Mar 10, 2018     20:17 20:18 0.02 hrs 0.00 hrs 0.00 nm 0.00 gal 0.00 gal/hr 0.00 gal/nm 0 msl 0 kts
Sun, Nov 30, 2014     00:11 00:12 0.02 hrs 0.00 hrs 0.00 nm 0.00 gal 0.00 gal/hr 0.00 gal/nm 0 msl 0 kts
Sat, Sep 15, 2012     00:01 00:02 0.02 hrs 0.00 hrs 0.00 nm 0.00 gal 0.00 gal/hr 0.00 gal/nm 0 msl 0 kts
Wed, Sep 19, 2012     04:16 04:17 0.02 hrs 0.00 hrs 0.00 nm 0.00 gal 0.00 gal/hr 0.00 gal/nm 0 msl 0 kts
Fri, Sep 12, 2014     22:54 22:55 0.02 hrs 0.00 hrs 0.00 nm 0.10 gal 5.45 gal/hr 0.00 gal/nm 0 msl 0 kts
Mon, Aug 19, 2013     22:30 22:31 0.02 hrs 0.00 hrs 0.00 nm 0.10 gal 5.45 gal/hr 0.00 gal/nm 0 msl 0 kts
Mon, May 12, 2008     17:39 17:40 0.02 hrs 0.00 hrs 0.00 nm 0.10 gal 5.45 gal/hr 0.00 gal/nm 0 msl 0 kts
Mon, May 12, 2008     23:40 23:41 0.02 hrs 0.00 hrs 0.00 nm 0.10 gal 5.45 gal/hr 0.00 gal/nm 0 msl 0 kts
Fri, Jun 27, 2014     22:53 22:54 0.02 hrs 0.00 hrs 0.00 nm 0.10 gal 5.45 gal/hr 0.00 gal/nm 0 msl 0 kts
Thu, Feb 18, 2010     21:33 21:34 0.02 hrs 0.00 hrs 0.00 nm 0.00 gal 0.00 gal/hr 0.00 gal/nm 0 msl 0 kts
Sat, Jun 28, 2014     18:20 18:21 0.02 hrs 0.00 hrs 0.00 nm 0.00 gal 0.00 gal/hr 0.00 gal/nm 0 msl 0 kts
Fri, Jan 16, 2015     22:07 22:08 0.02 hrs 0.00 hrs 0.00 nm 0.10 gal 5.45 gal/hr 0.00 gal/nm 0 msl 0 kts
Mon, Sep 22, 2008     23:03 23:04 0.02 hrs 0.00 hrs 0.00 nm 0.00 gal 0.00 gal/hr 0.00 gal/nm 0 msl 0 kts
Fri, Aug 29, 2014     00:05 00:06 0.02 hrs 0.00 hrs 0.00 nm 0.00 gal 0.00 gal/hr 0.00 gal/nm 0 msl 0 kts
Wed, Nov 12, 2008     23:11 23:12 0.02 hrs 0.00 hrs 0.00 nm 0.00 gal 0.00 gal/hr 0.00 gal/nm 0 msl 0 kts
Mon, Nov 17, 2008     20:00 20:01 0.02 hrs 0.00 hrs 0.00 nm 0.00 gal 0.00 gal/hr 0.00 gal/nm 0 msl 0 kts
Sun, Aug 31, 2014     02:36 02:37 0.02 hrs 0.00 hrs 0.00 nm 0.00 gal 0.00 gal/hr 0.00 gal/nm 0 msl 0 kts
Wed, Jan 7, 2015     01:33 01:34 0.02 hrs 0.00 hrs 0.00 nm 0.00 gal 0.00 gal/hr 0.00 gal/nm 0 msl 0 kts
Fri, Jun 6, 2014     02:35 02:36 0.02 hrs 0.00 hrs 0.00 nm 0.00 gal 0.00 gal/hr 0.00 gal/nm 0 msl 0 kts
Mon, Feb 2, 2015     23:22 23:23 0.02 hrs 0.00 hrs 0.00 nm 0.00 gal 0.00 gal/hr 0.00 gal/nm 0 msl 0 kts
Wed, Dec 23, 2009     17:56 17:57 0.02 hrs 0.00 hrs 0.00 nm 0.00 gal 0.00 gal/hr 0.00 gal/nm 0 msl 0 kts
Tue, Nov 24, 2009     21:13 21:14 0.02 hrs 0.00 hrs 0.00 nm 0.10 gal 5.45 gal/hr 0.00 gal/nm 0 msl 0 kts
Tue, Feb 24, 2015     00:26 00:26 0.02 hrs 0.00 hrs 0.00 nm 0.00 gal 0.00 gal/hr 0.00 gal/nm 0 msl 0 kts
Mon, Aug 10, 2009     15:25 15:26 0.02 hrs 0.00 hrs 0.00 nm 0.00 gal 0.00 gal/hr 0.00 gal/nm 0 msl 0 kts
Tue, Jun 16, 2009     21:10 21:11 0.02 hrs 0.00 hrs 0.00 nm 0.00 gal 0.00 gal/hr 0.00 gal/nm 0 msl 0 kts
Tue, May 14, 2013     22:02 22:04 0.02 hrs 0.00 hrs 0.00 nm 0.00 gal 0.00 gal/hr 0.00 gal/nm 0 msl 0 kts
Sat, Oct 30, 2010     00:15 00:15 0.02 hrs 0.00 hrs 0.00 nm 0.10 gal 5.45 gal/hr 0.00 gal/nm 0 msl 0 kts
Thu, Sep 30, 2010     20:01 20:02 0.02 hrs 0.00 hrs 0.00 nm 0.00 gal 0.00 gal/hr 0.00 gal/nm 0 msl 0 kts
Thu, Sep 30, 2010     19:59 20:00 0.02 hrs 0.00 hrs 0.00 nm 0.00 gal 0.00 gal/hr 0.00 gal/nm 0 msl 0 kts
Mon, Apr 20, 2009     00:51 00:52 0.02 hrs 0.00 hrs 0.00 nm 0.10 gal 5.45 gal/hr 0.00 gal/nm 0 msl 0 kts
Sun, Sep 26, 2010     21:38 21:39 0.02 hrs 0.00 hrs 0.00 nm 0.10 gal 5.45 gal/hr 0.00 gal/nm 0 msl 0 kts
Sun, Apr 19, 2009     22:00 22:01 0.02 hrs 0.00 hrs 0.00 nm 0.00 gal 0.00 gal/hr 0.00 gal/nm 0 msl 0 kts
Tue, Sep 14, 2010     22:27 22:28 0.02 hrs 0.00 hrs 0.00 nm 0.00 gal 0.00 gal/hr 0.00 gal/nm 0 msl 0 kts
Sun, Apr 12, 2009     22:22 22:23 0.02 hrs 0.00 hrs 0.00 nm 0.00 gal 0.00 gal/hr 0.00 gal/nm 0 msl 0 kts
Wed, Aug 25, 2010     20:25 20:26 0.02 hrs 0.00 hrs 0.00 nm 0.00 gal 0.00 gal/hr 0.00 gal/nm 0 msl 0 kts
Tue, Sep 30, 2014     22:25 22:25 0.02 hrs 0.00 hrs 0.00 nm 0.00 gal 0.00 gal/hr 0.00 gal/nm 0 msl 0 kts
Sat, Oct 25, 2014     16:59 17:00 0.02 hrs 0.00 hrs 0.00 nm 0.10 gal 5.45 gal/hr 0.00 gal/nm 0 msl 0 kts
Fri, Oct 31, 2014     22:56 22:57 0.02 hrs 0.00 hrs 0.00 nm 0.00 gal 0.00 gal/hr 0.00 gal/nm 0 msl 0 kts
Sun, Nov 2, 2014     19:34 19:35 0.02 hrs 0.00 hrs 0.00 nm 0.00 gal 0.00 gal/hr 0.00 gal/nm 0 msl 0 kts
Tue, Jan 28, 2014     00:01 00:02 0.02 hrs 0.00 hrs 0.00 nm 0.00 gal 0.00 gal/hr 0.00 gal/nm 0 msl 0 kts
Thu, Feb 13, 2014     22:24 22:25 0.02 hrs 0.00 hrs 0.00 nm 0.00 gal 0.00 gal/hr 0.00 gal/nm 0 msl 0 kts
Fri, Jan 3, 2014     23:30 23:31 0.02 hrs 0.00 hrs 0.00 nm 0.00 gal 0.00 gal/hr 0.00 gal/nm 0 msl 0 kts
Mon, Aug 19, 2013     21:27 21:28 0.02 hrs 0.00 hrs 0.00 nm 0.10 gal 5.45 gal/hr 0.00 gal/nm 0 msl 0 kts
Sat, Feb 23, 2013     00:10 00:11 0.02 hrs 0.00 hrs 0.00 nm 0.00 gal 0.00 gal/hr 0.00 gal/nm 0 msl 0 kts
Fri, Nov 14, 2014     05:23 05:24 0.02 hrs 0.00 hrs 0.00 nm 0.00 gal 0.00 gal/hr 0.00 gal/nm 0 msl 0 kts
Sun, Nov 16, 2014     18:23 18:24 0.02 hrs 0.00 hrs 0.00 nm 0.00 gal 0.00 gal/hr 0.00 gal/nm 0 msl 0 kts
Sat, Dec 29, 2012     00:49 00:50 0.02 hrs 0.00 hrs 0.00 nm 0.00 gal 0.00 gal/hr 0.00 gal/nm 0 msl 0 kts
Sun, Nov 16, 2014     18:25 18:26 0.02 hrs 0.00 hrs 0.00 nm 0.00 gal 0.00 gal/hr 0.00 gal/nm 0 msl 0 kts
Mon, Aug 19, 2013     21:52 21:53 0.02 hrs 0.00 hrs 0.00 nm 0.10 gal 5.45 gal/hr 0.00 gal/nm 0 msl 0 kts
Sun, Nov 16, 2014     20:28 20:29 0.02 hrs 0.00 hrs 0.00 nm 0.00 gal 0.00 gal/hr 0.00 gal/nm 0 msl 0 kts
Tue, Jan 1, 2013     20:32 20:33 0.02 hrs 0.00 hrs 0.00 nm 0.20 gal 10.91 gal/hr 0.00 gal/nm 0 msl 0 kts
Tue, Oct 1, 2013     19:48 19:49 0.02 hrs 0.00 hrs 0.00 nm 0.00 gal 0.00 gal/hr 0.00 gal/nm 0 msl 0 kts
Sat, Nov 22, 2014     18:34 18:35 0.02 hrs 0.00 hrs 0.00 nm 0.00 gal 0.00 gal/hr 0.00 gal/nm 0 msl 0 kts
Sat, Dec 29, 2012     00:47 00:48 0.02 hrs 0.00 hrs 0.00 nm 0.00 gal 0.00 gal/hr 0.00 gal/nm 0 msl 0 kts
Tue, Oct 16, 2012     20:20 20:21 0.02 hrs 0.00 hrs 0.00 nm 0.00 gal 0.00 gal/hr 0.00 gal/nm 0 msl 0 kts
Tue, May 13, 2008 KSNA KSNA 22:10 22:11 0.03 hrs 0.00 hrs 0.00 nm 0.10 gal 3.75 gal/hr 0.00 gal/nm 0 msl 0 kts
Wed, Apr 15, 2015     20:15 20:17 0.03 hrs 0.00 hrs 0.00 nm 0.10 gal 3.00 gal/hr 0.00 gal/nm 0 msl 0 kts
Fri, Jun 26, 2015     16:08 16:10 0.03 hrs 0.00 hrs 0.00 nm 0.10 gal 3.00 gal/hr 0.00 gal/nm 0 msl 0 kts
Fri, Mar 2, 2018     02:41 02:43 0.03 hrs 0.00 hrs 0.00 nm 0.10 gal 3.00 gal/hr 0.00 gal/nm 0 msl 0 kts
Fri, Mar 9, 2018     00:39 00:41 0.03 hrs 0.00 hrs 0.00 nm 0.00 gal 0.00 gal/hr 0.00 gal/nm 0 msl 0 kts
Thu, Aug 16, 2018     14:19 14:21 0.03 hrs 0.00 hrs 0.00 nm 0.10 gal 3.00 gal/hr 0.00 gal/nm 0 msl 0 kts
Sat, May 28, 2016     02:06 02:08 0.03 hrs 0.00 hrs 0.00 nm 0.10 gal 3.00 gal/hr 0.00 gal/nm 0 msl 0 kts
Fri, Jul 21, 2017     22:37 22:39 0.03 hrs 0.00 hrs 0.00 nm 0.10 gal 3.00 gal/hr 0.00 gal/nm 0 msl 0 kts
Sat, Dec 16, 2017 KSNA KSNA 19:54 19:56 0.03 hrs 0.00 hrs 0.00 nm 0.00 gal 0.00 gal/hr 0.00 gal/nm 0 msl 0 kts
Fri, Mar 17, 2000     03:58 04:00 0.03 hrs 0.00 hrs 0.00 nm 0.00 gal 0.00 gal/hr 0.00 gal/nm 0 msl 0 kts
Sun, Feb 3, 2019     17:14 17:16 0.03 hrs 0.00 hrs 0.00 nm 0.00 gal 0.00 gal/hr 0.00 gal/nm 0 msl 0 kts
Fri, Aug 18, 2017 KFAT KFAT 22:14 22:16 0.03 hrs 0.00 hrs 0.00 nm 0.00 gal 0.00 gal/hr 0.00 gal/nm 0 msl 0 kts
Sun, Feb 3, 2019     17:22 17:24 0.03 hrs 0.00 hrs 0.00 nm 0.00 gal 0.00 gal/hr 0.00 gal/nm 0 msl 0 kts
Sat, Aug 19, 2017     00:11 00:13 0.03 hrs 0.00 hrs 0.00 nm 0.10 gal 3.00 gal/hr 0.00 gal/nm 0 msl 0 kts
Sat, Jun 3, 2017     00:09 00:11 0.03 hrs 0.00 hrs 0.00 nm 0.10 gal 3.00 gal/hr 0.00 gal/nm 0 msl 0 kts
Thu, Jan 5, 2017     00:33 00:35 0.03 hrs 0.00 hrs 0.00 nm 0.00 gal 0.00 gal/hr 0.00 gal/nm 0 msl 0 kts
Sun, Jan 14, 2018 KUDD KUDD 21:56 21:58 0.03 hrs 0.00 hrs 0.00 nm 0.50 gal 15.00 gal/hr 0.00 gal/nm 0 msl 0 kts
Tue, Jul 18, 2017 KSNA KSNA 19:14 19:16 0.03 hrs 0.00 hrs 0.00 nm 0.00 gal 0.00 gal/hr 0.00 gal/nm 0 msl 0 kts
Tue, Feb 14, 2017     21:44 21:46 0.03 hrs 0.00 hrs 0.00 nm 0.00 gal 0.00 gal/hr 0.00 gal/nm 0 msl 0 kts
Sun, Jan 14, 2018 KUDD KUDD 21:56 21:58 0.03 hrs 0.00 hrs 0.00 nm 0.50 gal 15.00 gal/hr 0.00 gal/nm 0 msl 0 kts
Fri, Oct 12, 2018     07:12 07:14 0.03 hrs 0.00 hrs 0.00 nm 0.00 gal 0.00 gal/hr 0.00 gal/nm 0 msl 0 kts
Wed, Aug 19, 2015     02:40 02:42 0.03 hrs 0.00 hrs 0.00 nm 0.10 gal 3.00 gal/hr 0.00 gal/nm 0 msl 0 kts
Sun, Feb 11, 2018 KSNA KSNA 23:56 23:58 0.03 hrs 0.00 hrs 0.00 nm 0.00 gal 0.00 gal/hr 0.00 gal/nm 0 msl 0 kts
Fri, Dec 7, 2018     02:42 02:44 0.03 hrs 0.00 hrs 0.00 nm 0.00 gal 0.00 gal/hr 0.00 gal/nm 0 msl 0 kts
Mon, Feb 8, 2016     00:26 00:27 0.03 hrs 0.00 hrs 0.00 nm 0.00 gal 0.00 gal/hr 0.00 gal/nm 0 msl 0 kts
Fri, May 5, 2017     21:37 21:39 0.03 hrs 0.00 hrs 0.00 nm 0.10 gal 3.00 gal/hr 0.00 gal/nm 0 msl 0 kts
Wed, Nov 7, 2018     17:29 17:31 0.03 hrs 0.00 hrs 0.00 nm 0.00 gal 0.00 gal/hr 0.00 gal/nm 0 msl 0 kts
Sat, Feb 13, 2016     01:06 01:08 0.03 hrs 0.00 hrs 0.00 nm 0.20 gal 6.00 gal/hr 0.00 gal/nm 0 msl 0 kts
Tue, Dec 1, 2015 KSNA KSNA 22:15 22:16 0.03 hrs 0.00 hrs 0.00 nm 0.10 gal 3.00 gal/hr 0.00 gal/nm 0 msl 0 kts
Thu, Oct 1, 2015     20:22 20:24 0.03 hrs 0.00 hrs 0.00 nm 0.00 gal 0.00 gal/hr 0.00 gal/nm 0 msl 0 kts
Thu, Mar 3, 2016     23:17 23:19 0.03 hrs 0.00 hrs 0.00 nm 0.00 gal 0.00 gal/hr 0.00 gal/nm 0 msl 0 kts
Fri, Oct 20, 2017     20:02 20:04 0.03 hrs 0.00 hrs 0.00 nm 0.00 gal 0.00 gal/hr 0.00 gal/nm 0 msl 0 kts
Fri, Mar 4, 2016     16:59 17:01 0.03 hrs 0.00 hrs 0.00 nm 0.00 gal 0.00 gal/hr 0.00 gal/nm 0 msl 0 kts
Fri, Oct 20, 2017     23:11 23:12 0.03 hrs 0.00 hrs 0.00 nm 0.10 gal 3.00 gal/hr 0.00 gal/nm 0 msl 0 kts
Thu, Mar 10, 2016 KSNA KSNA 17:12 17:14 0.03 hrs 0.00 hrs 0.00 nm 0.00 gal 0.00 gal/hr 0.00 gal/nm 0 msl 0 kts
Thu, May 28, 2015     04:03 04:05 0.03 hrs 0.00 hrs 0.00 nm 0.00 gal 0.00 gal/hr 0.00 gal/nm 0 msl 0 kts
Sun, Oct 25, 2015 KPSP KPSP 04:49 04:51 0.03 hrs 0.00 hrs 0.00 nm 0.00 gal 0.00 gal/hr 0.00 gal/nm 0 msl 0 kts
Fri, Oct 30, 2015     00:38 00:40 0.03 hrs 0.00 hrs 0.00 nm 0.00 gal 0.00 gal/hr 0.00 gal/nm 0 msl 0 kts
Tue, Apr 14, 2015     15:06 15:08 0.03 hrs 0.00 hrs 0.00 nm 0.00 gal 0.00 gal/hr 0.00 gal/nm 0 msl 0 kts
Tue, Jun 9, 2015     23:08 23:10 0.03 hrs 0.00 hrs 0.00 nm 0.10 gal 3.00 gal/hr 0.00 gal/nm 0 msl 0 kts
Thu, May 29, 2008 KSNA KSNA 15:47 15:49 0.04 hrs 0.00 hrs 0.00 nm 0.20 gal 5.71 gal/hr 0.00 gal/nm 0 msl 0 kts
Thu, Sep 20, 2012     15:48 15:49 0.04 hrs 0.00 hrs 0.00 nm 0.10 gal 2.86 gal/hr 0.00 gal/nm 0 msl 0 kts
Sat, Dec 13, 2014 KSNA KSNA 00:39 00:41 0.04 hrs 0.00 hrs 0.00 nm 0.10 gal 2.86 gal/hr 0.00 gal/nm 0 msl 0 kts
Thu, Sep 20, 2012     21:21 21:23 0.04 hrs 0.00 hrs 0.00 nm 0.10 gal 2.86 gal/hr 0.00 gal/nm 0 msl 0 kts
Sat, Dec 20, 2014 KSNA KSNA 19:40 19:42 0.04 hrs 0.00 hrs 0.00 nm 0.00 gal 0.00 gal/hr 0.00 gal/nm 0 msl 0 kts
Wed, Aug 20, 2014 KSMO KSMO 18:43 18:45 0.04 hrs 0.00 hrs 0.00 nm 0.00 gal 0.00 gal/hr 0.00 gal/nm 0 msl 0 kts
Thu, Aug 28, 2014     01:52 01:54 0.04 hrs 0.00 hrs 0.00 nm 0.00 gal 0.00 gal/hr 0.00 gal/nm 0 msl 0 kts
Fri, Oct 16, 2009     20:59 21:01 0.04 hrs 0.00 hrs 0.00 nm 0.00 gal 0.00 gal/hr 0.00 gal/nm 0 msl 0 kts
Mon, Dec 15, 2008     19:26 19:28 0.04 hrs 0.00 hrs 0.00 nm 0.10 gal 2.86 gal/hr 0.00 gal/nm 0 msl 0 kts
Fri, Nov 19, 2010 KSNA KSNA 19:29 19:31 0.04 hrs 0.00 hrs 0.00 nm 0.00 gal 0.00 gal/hr 0.00 gal/nm 0 msl 0 kts
Fri, Nov 19, 2010 O61 O61 01:18 01:20 0.04 hrs 0.00 hrs 0.00 nm 0.10 gal 2.86 gal/hr 0.00 gal/nm 0 msl 0 kts
Mon, Apr 22, 2013 KSNA KSNA 15:09 15:12 0.04 hrs 0.00 hrs 0.00 nm 0.10 gal 2.86 gal/hr 0.00 gal/nm 0 msl 0 kts
Thu, Mar 14, 2013 KSNA KSNA 15:52 15:54 0.04 hrs 0.00 hrs 0.00 nm 0.00 gal 0.00 gal/hr 0.00 gal/nm 0 msl 0 kts
Thu, Sep 30, 2010 KSNA KSNA 23:31 23:33 0.04 hrs 0.00 hrs 0.00 nm 0.10 gal 2.86 gal/hr 0.00 gal/nm 0 msl 0 kts
Thu, Jun 10, 2010     22:21 22:23 0.04 hrs 0.00 hrs 0.00 nm 0.40 gal 11.43 gal/hr 0.00 gal/nm 0 msl 0 kts
Thu, Apr 26, 2012     20:33 20:35 0.04 hrs 0.00 hrs 0.00 nm 0.00 gal 0.00 gal/hr 0.00 gal/nm 0 msl 0 kts
Sat, Jun 23, 2012 KSNA KSNA 22:16 22:18 0.04 hrs 0.00 hrs 0.00 nm 0.00 gal 0.00 gal/hr 0.00 gal/nm 0 msl 0 kts
Sat, Dec 21, 2013     01:29 01:31 0.04 hrs 0.00 hrs 0.00 nm 0.00 gal 0.00 gal/hr 0.00 gal/nm 0 msl 0 kts
Sat, Dec 29, 2012     23:28 23:30 0.04 hrs 0.00 hrs 0.00 nm 0.10 gal 2.86 gal/hr 0.00 gal/nm 0 msl 0 kts
Fri, Aug 3, 2012     19:06 19:08 0.04 hrs 0.00 hrs 0.00 nm 0.30 gal 8.57 gal/hr 0.00 gal/nm 0 msl 0 kts
Fri, Jan 11, 2013 KSNA KSNA 23:44 23:46 0.04 hrs 0.00 hrs 0.00 nm 0.20 gal 5.71 gal/hr 0.00 gal/nm 0 msl 0 kts
Fri, Nov 21, 2014     00:37 00:39 0.04 hrs 0.00 hrs 0.00 nm 0.00 gal 0.00 gal/hr 0.00 gal/nm 0 msl 0 kts
Tue, Aug 14, 2012     01:16 01:18 0.04 hrs 0.00 hrs 0.00 nm 0.10 gal 2.86 gal/hr 0.00 gal/nm 0 msl 0 kts
Tue, May 6, 2008 KSNA KSNA 22:05 22:07 0.04 hrs 0.00 hrs 0.00 nm 0.20 gal 4.62 gal/hr 0.00 gal/nm 0 msl 0 kts
Fri, Nov 6, 2015 O61 O61 22:50 22:53 0.05 hrs 0.00 hrs 0.00 nm 0.00 gal 0.00 gal/hr 0.00 gal/nm 0 msl 0 kts
Fri, May 9, 2008     23:15 23:18 0.05 hrs 0.00 hrs 0.00 nm 0.50 gal 10.00 gal/hr 0.00 gal/nm 0 msl 0 kts
Wed, May 11, 2016     04:34 04:37 0.05 hrs 0.00 hrs 0.00 nm 0.00 gal 0.00 gal/hr 0.00 gal/nm 0 msl 0 kts
Thu, Apr 19, 2018     20:01 20:04 0.05 hrs 0.00 hrs 0.00 nm 0.00 gal 0.00 gal/hr 0.00 gal/nm 0 msl 0 kts
Wed, Jun 6, 2018 KSNA KSNA 14:53 14:56 0.05 hrs 0.00 hrs 0.00 nm 0.20 gal 4.00 gal/hr 0.00 gal/nm 0 msl 0 kts
Thu, May 24, 2018 KSNA KSNA 15:47 15:50 0.05 hrs 0.00 hrs 0.00 nm 0.20 gal 4.00 gal/hr 0.00 gal/nm 0 msl 0 kts
Wed, Dec 13, 2017     01:48 01:51 0.05 hrs 0.00 hrs 0.00 nm 0.00 gal 0.00 gal/hr 0.00 gal/nm 0 msl 0 kts
Thu, Jan 10, 2019 L35 L35 23:50 23:54 0.05 hrs 0.00 hrs 0.00 nm 0.20 gal 4.00 gal/hr 0.00 gal/nm 0 msl 0 kts
Tue, Aug 8, 2017     15:48 15:51 0.05 hrs 0.00 hrs 0.00 nm 0.20 gal 4.00 gal/hr 0.00 gal/nm 0 msl 0 kts
Wed, Aug 30, 2017     03:09 03:12 0.05 hrs 0.00 hrs 0.00 nm 0.00 gal 0.00 gal/hr 0.00 gal/nm 0 msl 0 kts
Fri, Jun 17, 2016     00:41 00:44 0.05 hrs 0.00 hrs 0.00 nm 0.00 gal 0.00 gal/hr 0.00 gal/nm 0 msl 0 kts
Fri, Nov 18, 2016     05:36 05:39 0.05 hrs 0.00 hrs 0.00 nm 0.00 gal 0.00 gal/hr 0.00 gal/nm 0 msl 0 kts
Thu, Jun 8, 2017 KSNA KSNA 19:48 19:51 0.05 hrs 0.00 hrs 0.00 nm 0.10 gal 2.00 gal/hr 0.00 gal/nm 0 msl 0 kts
Fri, Jun 9, 2017 KSNA KSNA 23:47 23:50 0.05 hrs 0.00 hrs 0.00 nm 0.20 gal 4.00 gal/hr 0.00 gal/nm 0 msl 0 kts
Thu, Jan 5, 2017     00:38 00:41 0.05 hrs 0.00 hrs 0.00 nm 0.00 gal 0.00 gal/hr 0.00 gal/nm 0 msl 0 kts
Fri, Jan 6, 2017     22:51 22:54 0.05 hrs 0.00 hrs 0.00 nm 0.00 gal 0.00 gal/hr 0.00 gal/nm 0 msl 0 kts
Tue, Feb 14, 2017 KSNA KSNA 19:00 19:03 0.05 hrs 0.00 hrs 0.00 nm 1.90 gal 38.00 gal/hr 0.00 gal/nm 0 msl 0 kts
Tue, Feb 14, 2017     19:28 19:31 0.05 hrs 0.00 hrs 0.00 nm 0.00 gal 0.00 gal/hr 0.00 gal/nm 0 msl 0 kts
Fri, Jun 17, 2016     17:16 17:19 0.05 hrs 0.00 hrs 0.00 nm 0.20 gal 4.00 gal/hr 0.00 gal/nm 0 msl 0 kts
Wed, Jan 3, 2018     03:33 03:36 0.05 hrs 0.00 hrs 0.00 nm 0.00 gal 0.00 gal/hr 0.00 gal/nm 0 msl 0 kts
Tue, Jan 30, 2018     16:34 16:37 0.05 hrs 0.00 hrs 0.00 nm 0.20 gal 4.00 gal/hr 0.00 gal/nm 0 msl 0 kts
Tue, Jan 30, 2018     16:34 16:37 0.05 hrs 0.00 hrs 0.00 nm 0.20 gal 4.00 gal/hr 0.00 gal/nm 0 msl 0 kts
Fri, Jan 12, 2018 KSNA KSNA 23:48 23:51 0.05 hrs 0.00 hrs 0.00 nm 0.00 gal 0.00 gal/hr 0.00 gal/nm 0 msl 0 kts
Fri, Jan 12, 2018 KSNA KSNA 23:48 23:51 0.05 hrs 0.00 hrs 0.00 nm 0.00 gal 0.00 gal/hr 0.00 gal/nm 0 msl 0 kts
Thu, Mar 30, 2017     02:59 03:02 0.05 hrs 0.00 hrs 0.00 nm 0.00 gal 0.00 gal/hr 0.00 gal/nm 0 msl 0 kts
Thu, Nov 8, 2018     18:06 18:09 0.05 hrs 0.00 hrs 0.00 nm 0.20 gal 4.00 gal/hr 0.00 gal/nm 0 msl 0 kts
Wed, Sep 13, 2017 KSNA KSNA 14:45 14:48 0.05 hrs 0.00 hrs 0.00 nm 0.10 gal 2.00 gal/hr 0.00 gal/nm 0 msl 0 kts
Mon, Jan 22, 2018 KSNA KSNA 00:51 00:54 0.05 hrs 0.00 hrs 0.00 nm 0.00 gal 0.00 gal/hr 0.00 gal/nm 0 msl 0 kts
Wed, Sep 13, 2017 KSNA KSNA 20:52 20:55 0.05 hrs 0.00 hrs 0.00 nm 0.20 gal 4.00 gal/hr 0.00 gal/nm 0 msl 0 kts
Sat, Nov 14, 2015 KSNA KSNA 04:47 04:50 0.05 hrs 0.00 hrs 0.00 nm 0.00 gal 0.00 gal/hr 0.00 gal/nm 0 msl 0 kts
Wed, Sep 23, 2015 KSNA KSNA 20:59 21:02 0.05 hrs 0.00 hrs 0.00 nm 0.10 gal 2.00 gal/hr 0.00 gal/nm 0 msl 0 kts
Mon, Jan 22, 2018 KSNA KSNA 00:34 00:38 0.05 hrs 0.00 hrs 0.00 nm 0.00 gal 0.00 gal/hr 0.00 gal/nm 0 msl 0 kts
Thu, Oct 19, 2017     15:21 15:24 0.05 hrs 0.00 hrs 0.00 nm 0.20 gal 4.00 gal/hr 0.00 gal/nm 0 msl 0 kts
Fri, Mar 4, 2016     22:17 22:20 0.05 hrs 0.00 hrs 0.00 nm 0.00 gal 0.00 gal/hr 0.00 gal/nm 0 msl 0 kts
Fri, Mar 4, 2016 KSNA KSNA 22:38 22:41 0.05 hrs 0.00 hrs 0.00 nm 0.00 gal 0.00 gal/hr 0.00 gal/nm 0 msl 0 kts
Sat, Oct 24, 2015 KSNA KSNA 22:53 22:56 0.05 hrs 0.00 hrs 0.00 nm 0.00 gal 0.00 gal/hr 0.00 gal/nm 0 msl 0 kts
Fri, Jan 15, 2016 KSNA KSNA 18:52 18:55 0.05 hrs 0.00 hrs 0.00 nm 0.00 gal 0.00 gal/hr 0.00 gal/nm 0 msl 0 kts
Tue, Nov 14, 2017 KSNA KSNA 14:17 14:20 0.05 hrs 0.00 hrs 0.00 nm 0.20 gal 4.00 gal/hr 0.00 gal/nm 0 msl 0 kts
Mon, Oct 27, 2014     14:22 14:25 0.05 hrs 0.00 hrs 0.00 nm 0.00 gal 0.00 gal/hr 0.00 gal/nm 0 msl 0 kts
Mon, Oct 27, 2014 KOWD KOWD 15:50 15:53 0.05 hrs 0.03 hrs 12.61 nm 0.00 gal 0.00 gal/hr 0.00 gal/nm 0 msl 378 kts
Sat, Jun 14, 2008 KMYF KMYF 19:49 19:52 0.05 hrs 0.00 hrs 0.00 nm 0.00 gal 0.00 gal/hr 0.00 gal/nm 0 msl 0 kts
Mon, Oct 27, 2014     19:29 19:32 0.05 hrs 0.00 hrs 0.00 nm 0.00 gal 0.00 gal/hr 0.00 gal/nm 0 msl 0 kts
Wed, Jun 11, 2008 KSNA KSNA 23:07 23:10 0.05 hrs 0.00 hrs 0.00 nm 0.20 gal 4.00 gal/hr 0.00 gal/nm 0 msl 0 kts
Fri, Dec 14, 2012     00:36 00:39 0.05 hrs 0.00 hrs 0.00 nm 0.20 gal 3.87 gal/hr 0.00 gal/nm 0 msl 0 kts
Tue, Sep 9, 2014 KSNA KSNA 21:54 21:57 0.05 hrs 0.00 hrs 0.00 nm 0.20 gal 3.87 gal/hr 0.00 gal/nm 0 msl 0 kts
Fri, Dec 26, 2014 KCCR KCCR 21:26 21:29 0.05 hrs 0.00 hrs 0.00 nm 0.20 gal 3.87 gal/hr 0.00 gal/nm 0 msl 0 kts
Thu, Aug 28, 2014     01:57 02:00 0.05 hrs 0.00 hrs 0.00 nm 0.00 gal 0.00 gal/hr 0.00 gal/nm 0 msl 0 kts
Sat, Jun 14, 2014     03:08 03:10 0.05 hrs 0.00 hrs 0.00 nm 0.20 gal 3.87 gal/hr 0.00 gal/nm 0 msl 0 kts
Wed, Sep 9, 2009 KSNA KSNA 23:43 23:46 0.05 hrs 0.00 hrs 0.00 nm 0.20 gal 3.87 gal/hr 0.00 gal/nm 0 msl 0 kts
Fri, Nov 5, 2010 KOXR KOXR 21:30 21:33 0.05 hrs 0.00 hrs 0.00 nm 0.00 gal 0.00 gal/hr 0.00 gal/nm 0 msl 0 kts
Tue, Apr 9, 2013 KSNA KSNA 15:21 15:24 0.05 hrs 0.00 hrs 0.00 nm 0.20 gal 3.87 gal/hr 0.00 gal/nm 0 msl 0 kts
Tue, Jan 6, 2009 KSNA KSNA 00:25 00:28 0.05 hrs 0.00 hrs 0.00 nm 0.10 gal 1.94 gal/hr 0.00 gal/nm 0 msl 0 kts
Mon, Jan 9, 2012 KSNA KSNA 23:37 23:40 0.05 hrs 0.00 hrs 0.00 nm 0.20 gal 3.87 gal/hr 0.00 gal/nm 0 msl 0 kts
Thu, Jan 26, 2012 KSNA KSNA 02:50 02:53 0.05 hrs 0.00 hrs 0.00 nm 0.00 gal 0.00 gal/hr 0.00 gal/nm 0 msl 0 kts
Thu, Apr 5, 2012 KSNA KSNA 21:30 21:33 0.05 hrs 0.00 hrs 0.00 nm 0.20 gal 3.87 gal/hr 0.00 gal/nm 0 msl 0 kts
Fri, Apr 6, 2012     15:22 15:25 0.05 hrs 0.00 hrs 0.00 nm 0.20 gal 3.87 gal/hr 0.00 gal/nm 0 msl 0 kts
Thu, Jun 10, 2010     22:34 22:37 0.05 hrs 0.00 hrs 0.00 nm 0.10 gal 1.94 gal/hr 0.00 gal/nm 0 msl 0 kts
Sat, May 29, 2010     14:45 14:48 0.05 hrs 0.00 hrs 0.00 nm 0.10 gal 1.94 gal/hr 0.00 gal/nm 0 msl 0 kts
Wed, Nov 5, 2014     21:28 21:31 0.05 hrs 0.00 hrs 0.00 nm 0.20 gal 3.87 gal/hr 0.00 gal/nm 0 msl 0 kts
Fri, Feb 14, 2014     21:27 21:30 0.05 hrs 0.00 hrs 0.00 nm 0.00 gal 0.00 gal/hr 0.00 gal/nm 0 msl 0 kts
Sun, Nov 16, 2014     18:29 18:32 0.05 hrs 0.00 hrs 0.00 nm 0.00 gal 0.00 gal/hr 0.00 gal/nm 0 msl 0 kts
Tue, Aug 7, 2012     21:56 21:59 0.05 hrs 0.00 hrs 0.00 nm 0.20 gal 3.87 gal/hr 0.00 gal/nm 0 msl 0 kts
Wed, Aug 8, 2012     22:32 22:35 0.05 hrs 0.00 hrs 0.00 nm 0.10 gal 1.94 gal/hr 0.00 gal/nm 0 msl 0 kts
Wed, Aug 8, 2012 KSNA KSNA 22:54 22:57 0.05 hrs 0.00 hrs 0.00 nm 0.40 gal 7.74 gal/hr 0.00 gal/nm 0 msl 0 kts
Thu, Nov 20, 2014 KSNA KSNA 18:45 18:48 0.05 hrs 0.00 hrs 0.00 nm 0.00 gal 0.00 gal/hr 0.00 gal/nm 0 msl 0 kts
Tue, Aug 20, 2013 KSNA KSNA 00:01 00:04 0.05 hrs 0.00 hrs 0.00 nm 0.20 gal 3.87 gal/hr 0.00 gal/nm 0 msl 0 kts
Tue, Aug 20, 2013 KSNA KSNA 00:34 00:37 0.05 hrs 0.00 hrs 0.00 nm 0.00 gal 0.00 gal/hr 0.00 gal/nm 0 msl 0 kts
Sat, Nov 22, 2014     18:30 18:33 0.05 hrs 0.00 hrs 0.00 nm 0.00 gal 0.00 gal/hr 0.00 gal/nm 0 msl 0 kts
Sat, Nov 22, 2014     18:36 18:39 0.05 hrs 0.00 hrs 0.00 nm 0.00 gal 0.00 gal/hr 0.00 gal/nm 0 msl 0 kts
Fri, Aug 16, 2013 KSNA KSNA 21:23 21:26 0.05 hrs 0.00 hrs 0.00 nm 0.10 gal 1.94 gal/hr 0.00 gal/nm 0 msl 0 kts
Tue, Nov 25, 2008 KSNA KSNA 23:34 23:37 0.06 hrs 0.00 hrs 0.00 nm 0.20 gal 3.53 gal/hr 0.00 gal/nm 0 msl 0 kts
Thu, May 29, 2008     23:07 23:11 0.07 hrs 0.00 hrs 0.00 nm 0.20 gal 3.00 gal/hr 0.00 gal/nm 0 msl 0 kts
Fri, Mar 2, 2018     02:30 02:34 0.07 hrs 0.00 hrs 0.00 nm 0.50 gal 7.50 gal/hr 0.00 gal/nm 0 msl 0 kts
Mon, May 12, 2008 KSNA KSNA 17:41 17:45 0.07 hrs 0.00 hrs 0.00 nm 0.30 gal 4.50 gal/hr 0.00 gal/nm 0 msl 0 kts
Tue, Apr 12, 2016 Q60 Q60 23:08 23:12 0.07 hrs 0.00 hrs 0.00 nm 0.20 gal 3.00 gal/hr 0.00 gal/nm 0 msl 0 kts
Sun, May 3, 2015 KSNA KSNA 19:54 19:58 0.07 hrs 0.00 hrs 0.00 nm 0.00 gal 0.00 gal/hr 0.00 gal/nm 0 msl 0 kts
Fri, Apr 29, 2016 KSAC KSAC 19:36 19:40 0.07 hrs 0.00 hrs 0.00 nm 0.20 gal 3.00 gal/hr 0.00 gal/nm 0 msl 0 kts
Sun, May 4, 2008 KSNA KSNA 22:36 22:39 0.07 hrs 0.00 hrs 0.00 nm 0.20 gal 3.00 gal/hr 0.00 gal/nm 0 msl 0 kts
Sat, Aug 4, 2018     19:55 19:59 0.07 hrs 0.00 hrs 0.00 nm 0.00 gal 0.00 gal/hr 0.00 gal/nm 0 msl 0 kts
Wed, Jan 3, 2018     01:26 01:30 0.07 hrs 0.00 hrs 0.00 nm 0.00 gal 0.00 gal/hr 0.00 gal/nm 0 msl 0 kts
Sat, Aug 12, 2017 KCCR KCCR 00:35 00:39 0.07 hrs 0.00 hrs 0.00 nm 0.20 gal 3.00 gal/hr 0.00 gal/nm 0 msl 0 kts
Fri, Jun 2, 2017 KSNA KSNA 22:52 22:56 0.07 hrs 0.00 hrs 0.00 nm 0.20 gal 3.00 gal/hr 0.00 gal/nm 0 msl 0 kts
Wed, Nov 30, 2016     23:05 23:09 0.07 hrs 0.00 hrs 0.00 nm 0.00 gal 0.00 gal/hr 0.00 gal/nm 0 msl 0 kts
Mon, Jan 16, 2017 KSNA KSNA 16:52 16:57 0.07 hrs 0.00 hrs 0.00 nm 0.20 gal 3.00 gal/hr 0.00 gal/nm 0 msl 0 kts
Thu, Jan 19, 2017     18:45 18:49 0.07 hrs 0.00 hrs 0.00 nm 0.20 gal 3.00 gal/hr 0.00 gal/nm 0 msl 0 kts
Thu, Jan 19, 2017     18:55 18:59 0.07 hrs 0.00 hrs 0.00 nm 0.50 gal 7.50 gal/hr 0.00 gal/nm 0 msl 0 kts
Fri, Jan 20, 2017     20:41 20:44 0.07 hrs 0.00 hrs 0.00 nm 0.00 gal 0.00 gal/hr 0.00 gal/nm 0 msl 0 kts
Mon, Feb 13, 2017     23:47 23:51 0.07 hrs 0.00 hrs 0.00 nm 0.00 gal 0.00 gal/hr 0.00 gal/nm 0 msl 0 kts
Fri, Jun 10, 2016 KSNA KSNA 15:09 15:13 0.07 hrs 0.00 hrs 0.00 nm 0.20 gal 3.00 gal/hr 0.00 gal/nm 0 msl 0 kts
Fri, Jun 10, 2016 KSNA KSNA 15:22 15:26 0.07 hrs 0.00 hrs 0.00 nm 0.20 gal 3.00 gal/hr 0.00 gal/nm 0 msl 0 kts
Mon, Mar 13, 2017     18:36 18:40 0.07 hrs 0.00 hrs 0.00 nm 0.00 gal 0.00 gal/hr 0.00 gal/nm 0 msl 0 kts
Wed, Mar 15, 2017     18:13 18:17 0.07 hrs 0.00 hrs 0.00 nm 0.00 gal 0.00 gal/hr 0.00 gal/nm 0 msl 0 kts
Thu, Aug 20, 2015     17:30 17:34 0.07 hrs 0.00 hrs 0.00 nm 0.40 gal 6.00 gal/hr 0.00 gal/nm 0 msl 0 kts
Mon, Feb 5, 2018     02:40 02:44 0.07 hrs 0.00 hrs 0.00 nm 0.20 gal 3.00 gal/hr 0.00 gal/nm 0 msl 0 kts
Wed, Feb 28, 2018 KSNA KSNA 05:21 05:26 0.07 hrs 0.00 hrs 0.00 nm 0.00 gal 0.00 gal/hr 0.00 gal/nm 0 msl 0 kts
Wed, Apr 12, 2017     16:38 16:42 0.07 hrs 0.00 hrs 0.00 nm 0.00 gal 0.00 gal/hr 0.00 gal/nm 0 msl 0 kts
Sun, Feb 4, 2018     07:13 07:17 0.07 hrs 0.00 hrs 0.00 nm 0.00 gal 0.00 gal/hr 0.00 gal/nm 0 msl 0 kts
Fri, May 5, 2017 KSNA KSNA 23:50 23:54 0.07 hrs 0.00 hrs 0.00 nm 0.20 gal 3.00 gal/hr 0.00 gal/nm 0 msl 0 kts
Tue, Sep 19, 2017 KCCR KCCR 17:05 17:09 0.07 hrs 0.00 hrs 0.00 nm 0.20 gal 3.00 gal/hr 0.00 gal/nm 0 msl 0 kts
Thu, Oct 1, 2015     18:31 18:35 0.07 hrs 0.00 hrs 0.00 nm 0.20 gal 3.00 gal/hr 0.00 gal/nm 0 msl 0 kts
Sun, Feb 28, 2016 KSNA KSNA 20:15 20:19 0.07 hrs 0.00 hrs 0.00 nm 0.00 gal 0.00 gal/hr 0.00 gal/nm 0 msl 0 kts
Sat, Jan 1, 2000     00:00 00:04 0.07 hrs 0.00 hrs 0.00 nm 0.00 gal 0.00 gal/hr 0.00 gal/nm 0 msl 0 kts
Tue, Mar 22, 2016 KSNA KSNA 22:44 22:48 0.07 hrs 0.00 hrs 0.00 nm 0.40 gal 6.00 gal/hr 0.00 gal/nm 0 msl 0 kts
Tue, Apr 14, 2015     15:02 15:05 0.07 hrs 0.00 hrs 0.00 nm 0.00 gal 0.00 gal/hr 0.00 gal/nm 0 msl 0 kts
Mon, Sep 17, 2012 KVGT KVGT 00:20 00:24 0.07 hrs 0.00 hrs 0.00 nm 0.00 gal 0.00 gal/hr 0.00 gal/nm 0 msl 0 kts
Wed, Sep 3, 2014 KSNA KSNA 16:50 16:54 0.07 hrs 0.00 hrs 0.00 nm 0.20 gal 2.93 gal/hr 0.00 gal/nm 0 msl 0 kts
Wed, Feb 24, 2010 KSNA KSNA 00:20 00:24 0.07 hrs 0.00 hrs 0.00 nm 0.00 gal 0.00 gal/hr 0.00 gal/nm 0 msl 0 kts
Wed, Jan 7, 2015     01:36 01:40 0.07 hrs 0.00 hrs 0.00 nm 0.00 gal 0.00 gal/hr 0.00 gal/nm 0 msl 0 kts
Tue, Feb 10, 2015     00:35 00:39 0.07 hrs 0.00 hrs 0.00 nm 0.30 gal 4.39 gal/hr 0.00 gal/nm 0 msl 0 kts
Wed, Sep 9, 2009     23:08 23:12 0.07 hrs 0.00 hrs 0.00 nm 0.40 gal 5.85 gal/hr 0.00 gal/nm 0 msl 0 kts
Wed, Apr 17, 2013 KSNA KSNA 22:22 22:26 0.07 hrs 0.00 hrs 0.00 nm 0.20 gal 2.93 gal/hr 0.00 gal/nm 0 msl 0 kts
Tue, Jun 16, 2009 KSNA KSNA 21:27 21:31 0.07 hrs 0.00 hrs 0.00 nm 0.20 gal 2.93 gal/hr 0.00 gal/nm 0 msl 0 kts
Mon, Apr 22, 2013     17:12 17:16 0.07 hrs 0.00 hrs 0.00 nm 0.20 gal 2.93 gal/hr 0.00 gal/nm 0 msl 0 kts
Tue, Jun 16, 2009 KSNA KSNA 17:36 17:40 0.07 hrs 0.00 hrs 0.00 nm 0.20 gal 2.93 gal/hr 0.00 gal/nm 0 msl 0 kts
Fri, Jun 12, 2009 KSNA KSNA 23:11 23:15 0.07 hrs 0.00 hrs 0.00 nm 0.20 gal 2.93 gal/hr 0.00 gal/nm 0 msl 0 kts
Fri, Oct 29, 2010     23:45 23:49 0.07 hrs 0.00 hrs 0.00 nm 0.20 gal 2.93 gal/hr 0.00 gal/nm 0 msl 0 kts
Sun, Oct 3, 2010 KSNA KSNA 21:39 21:43 0.07 hrs 0.00 hrs 0.00 nm 0.00 gal 0.00 gal/hr 0.00 gal/nm 0 msl 0 kts
Sun, Mar 1, 2015     22:26 22:30 0.07 hrs 0.00 hrs 0.00 nm 0.40 gal 5.85 gal/hr 0.00 gal/nm 0 msl 0 kts
Mon, Jan 5, 2009 KSNA KSNA 17:23 17:27 0.07 hrs 0.00 hrs 0.00 nm 0.20 gal 2.93 gal/hr 0.00 gal/nm 0 msl 0 kts
Thu, Oct 9, 2014     01:08 01:12 0.07 hrs 0.00 hrs 0.00 nm 0.00 gal 0.00 gal/hr 0.00 gal/nm 0 msl 0 kts
Tue, Jun 8, 2010 KSNA KSNA 15:00 15:04 0.07 hrs 0.00 hrs 0.00 nm 0.30 gal 4.39 gal/hr 0.00 gal/nm 0 msl 0 kts
Fri, Oct 10, 2014     04:38 04:41 0.07 hrs 0.00 hrs 0.00 nm 0.00 gal 0.00 gal/hr 0.00 gal/nm 0 msl 0 kts
Wed, Apr 30, 2014     00:18 00:22 0.07 hrs 0.00 hrs 0.00 nm 0.00 gal 0.00 gal/hr 0.00 gal/nm 0 msl 0 kts
Sun, Mar 16, 2014 KSNA KSNA 23:14 23:18 0.07 hrs 0.00 hrs 0.00 nm 0.00 gal 0.00 gal/hr 0.00 gal/nm 0 msl 0 kts
Wed, Nov 5, 2014     23:54 23:58 0.07 hrs 0.00 hrs 0.00 nm 0.30 gal 4.39 gal/hr 0.00 gal/nm 0 msl 0 kts
Tue, Jul 3, 2012     21:05 21:09 0.07 hrs 0.00 hrs 0.00 nm 0.00 gal 0.00 gal/hr 0.00 gal/nm 0 msl 0 kts
Sat, Jan 4, 2014     00:55 00:59 0.07 hrs 0.00 hrs 0.00 nm 0.40 gal 5.85 gal/hr 0.00 gal/nm 0 msl 0 kts
Thu, Jan 24, 2013 KSNA KSNA 23:15 23:19 0.07 hrs 0.00 hrs 0.00 nm 0.20 gal 2.93 gal/hr 0.00 gal/nm 0 msl 0 kts
Sat, Feb 28, 2009 KSNA KSNA 19:35 19:39 0.07 hrs 0.00 hrs 0.00 nm 0.30 gal 4.39 gal/hr 0.00 gal/nm 0 msl 0 kts
Wed, Aug 8, 2012 KSNA KSNA 22:49 22:53 0.07 hrs 0.00 hrs 0.00 nm 0.20 gal 2.93 gal/hr 0.00 gal/nm 0 msl 0 kts
Sat, Jan 12, 2013 KRAL KRAL 23:13 23:17 0.07 hrs 0.00 hrs 0.00 nm 0.00 gal 0.00 gal/hr 0.00 gal/nm 0 msl 0 kts
Wed, Aug 15, 2012 KSNA KSNA 17:22 17:26 0.07 hrs 0.00 hrs 0.00 nm 0.20 gal 2.93 gal/hr 0.00 gal/nm 0 msl 0 kts
Wed, Jan 7, 2009 KSNA KSNA 22:27 22:30 0.07 hrs 0.00 hrs 0.00 nm 0.20 gal 2.93 gal/hr 0.00 gal/nm 0 msl 0 kts
Sat, Nov 1, 2008 KSNA KSNA 16:11 16:15 0.07 hrs 0.00 hrs 0.00 nm 0.30 gal 4.19 gal/hr 0.00 gal/nm 0 msl 0 kts
Sun, Oct 5, 2008 KSNA KSNA 19:18 19:22 0.07 hrs 0.00 hrs 0.00 nm 0.20 gal 2.79 gal/hr 0.00 gal/nm 0 msl 0 kts
Tue, May 13, 2008 KSNA KSNA 16:42 16:46 0.08 hrs 0.00 hrs 0.00 nm 0.40 gal 5.11 gal/hr 0.00 gal/nm 0 msl 0 kts
Fri, Mar 2, 2018     02:18 02:23 0.08 hrs 0.00 hrs 0.00 nm 0.70 gal 8.40 gal/hr 0.00 gal/nm 0 msl 0 kts
Sat, Sep 1, 2018 KSNA KSNA 21:07 21:12 0.08 hrs 0.00 hrs 0.00 nm 0.00 gal 0.00 gal/hr 0.00 gal/nm 0 msl 0 kts
Sat, Apr 14, 2018 KSNA KSNA 00:41 00:46 0.08 hrs 0.00 hrs 0.00 nm 0.30 gal 3.60 gal/hr 0.00 gal/nm 0 msl 0 kts
Sat, Jun 10, 2017     20:25 20:30 0.08 hrs 0.00 hrs 0.00 nm 0.00 gal 0.00 gal/hr 0.00 gal/nm 0 msl 0 kts
Sun, Dec 4, 2016     23:47 23:52 0.08 hrs 0.00 hrs 0.00 nm 0.00 gal 0.00 gal/hr 0.00 gal/nm 0 msl 0 kts
Sat, Dec 10, 2016     02:06 02:11 0.08 hrs 0.00 hrs 0.00 nm 0.00 gal 0.00 gal/hr 0.00 gal/nm 0 msl 0 kts
Sun, Jan 14, 2018 KUDD KUDD 21:48 21:53 0.08 hrs 0.00 hrs 0.00 nm 0.30 gal 3.60 gal/hr 0.00 gal/nm 0 msl 0 kts
Tue, Feb 14, 2017 KSNA KSNA 19:20 19:25 0.08 hrs 0.00 hrs 0.00 nm 0.00 gal 0.00 gal/hr 0.00 gal/nm 0 msl 0 kts
Tue, Feb 14, 2017     21:37 21:42 0.08 hrs 0.00 hrs 0.00 nm 0.00 gal 0.00 gal/hr 0.00 gal/nm 0 msl 0 kts
Sun, Jan 14, 2018 KUDD KUDD 21:48 21:53 0.08 hrs 0.00 hrs 0.00 nm 0.30 gal 3.60 gal/hr 0.00 gal/nm 0 msl 0 kts
Wed, Jul 29, 2015     02:19 02:24 0.08 hrs 0.00 hrs 0.00 nm 0.00 gal 0.00 gal/hr 0.00 gal/nm 0 msl 0 kts
Tue, Aug 18, 2015 KSNA KSNA 19:17 19:22 0.08 hrs 0.00 hrs 0.00 nm 0.30 gal 3.60 gal/hr 0.00 gal/nm 0 msl 0 kts
Tue, Feb 6, 2018 KSNA KSNA 04:18 04:24 0.08 hrs 0.00 hrs 0.00 nm 0.00 gal 0.00 gal/hr 0.00 gal/nm 0 msl 0 kts
Sun, Oct 5, 2008 KSNA KSNA 20:16 20:21 0.08 hrs 0.00 hrs 0.00 nm 0.20 gal 2.40 gal/hr 0.00 gal/nm 0 msl 0 kts
Sun, Sep 3, 2017 KSNA KSNA 20:19 20:23 0.08 hrs 0.00 hrs 0.00 nm 0.40 gal 4.80 gal/hr 0.00 gal/nm 0 msl 0 kts
Mon, Jan 22, 2018 KSNA KSNA 00:56 01:01 0.08 hrs 0.00 hrs 0.00 nm 0.00 gal 0.00 gal/hr 0.00 gal/nm 0 msl 0 kts
Sun, Feb 4, 2018     07:07 07:12 0.08 hrs 0.00 hrs 0.00 nm 0.00 gal 0.00 gal/hr 0.00 gal/nm 0 msl 0 kts
Sun, Nov 29, 2015     22:12 22:17 0.08 hrs 0.00 hrs 0.00 nm 0.00 gal 0.00 gal/hr 0.00 gal/nm 0 msl 0 kts
Sun, Apr 29, 2018 KSNA KSNA 23:01 23:06 0.08 hrs 0.00 hrs 0.00 nm 0.40 gal 4.80 gal/hr 0.00 gal/nm 0 msl 0 kts
Sun, Dec 20, 2015     21:55 22:00 0.08 hrs 0.00 hrs 0.00 nm 0.00 gal 0.00 gal/hr 0.00 gal/nm 0 msl 0 kts
Fri, Oct 20, 2017 KSNA KSNA 23:04 23:09 0.08 hrs 0.00 hrs 0.00 nm 0.30 gal 3.60 gal/hr 0.00 gal/nm 0 msl 0 kts
Tue, Jun 9, 2015     19:58 20:03 0.08 hrs 0.00 hrs 0.00 nm 0.20 gal 2.40 gal/hr